<?xml version="1.0" encoding="UTF-8" standalone="no" ?>
<gpx xmlns="http://www.topografix.com/GPX/1/1" xmlns:xsi="http://www.w3.org/2001/XMLSchema-instance" xsi:schemaLocation="http://www.topografix.com/GPX/1/1 http://www.topografix.com/GPX/1/1/gpx.xsd" version="1.1" creator="VisuGPX - https://www.visugpx.com">
  <metadata>
    <name>Entrainement près de Coursac</name>
    <desc><![CDATA[Plus de route que de chemins !]]></desc>
  </metadata>
  <trk>
    <name><![CDATA[Entrainement près de Coursac_1]]></name>
    <trkseg>
      <trkpt lat="45.18586" lon="0.63293">
        <ele>79</ele>
        <time>2015-03-12T13:59:55Z</time>
      </trkpt>
      <trkpt lat="45.18586" lon="0.63293">
        <ele>90.3</ele>
        <time>2015-03-12T14:00:00Z</time>
      </trkpt>
      <trkpt lat="45.18597" lon="0.63313">
        <ele>86.5</ele>
        <time>2015-03-12T14:01:16Z</time>
      </trkpt>
      <trkpt lat="45.18584" lon="0.63358">
        <ele>87.6</ele>
        <time>2015-03-12T14:01:27Z</time>
      </trkpt>
      <trkpt lat="45.18562" lon="0.6337">
        <ele>87.3</ele>
        <time>2015-03-12T14:01:33Z</time>
      </trkpt>
      <trkpt lat="45.18539" lon="0.63347">
        <ele>85.5</ele>
        <time>2015-03-12T14:01:38Z</time>
      </trkpt>
      <trkpt lat="45.18514" lon="0.63331">
        <ele>84.1</ele>
        <time>2015-03-12T14:01:44Z</time>
      </trkpt>
      <trkpt lat="45.18495" lon="0.63312">
        <ele>84</ele>
        <time>2015-03-12T14:01:51Z</time>
      </trkpt>
      <trkpt lat="45.18494" lon="0.63275">
        <ele>83.19</ele>
        <time>2015-03-12T14:01:57Z</time>
      </trkpt>
      <trkpt lat="45.18496" lon="0.63235">
        <ele>80.6</ele>
        <time>2015-03-12T14:02:03Z</time>
      </trkpt>
      <trkpt lat="45.18497" lon="0.632">
        <ele>81.6</ele>
        <time>2015-03-12T14:02:08Z</time>
      </trkpt>
      <trkpt lat="45.18497" lon="0.63179">
        <ele>83.39</ele>
        <time>2015-03-12T14:02:11Z</time>
      </trkpt>
      <trkpt lat="45.18501" lon="0.63133">
        <ele>83.69</ele>
        <time>2015-03-12T14:02:18Z</time>
      </trkpt>
      <trkpt lat="45.18507" lon="0.63099">
        <ele>81.19</ele>
        <time>2015-03-12T14:02:24Z</time>
      </trkpt>
      <trkpt lat="45.18509" lon="0.63055">
        <ele>83.69</ele>
        <time>2015-03-12T14:02:31Z</time>
      </trkpt>
      <trkpt lat="45.18508" lon="0.63021">
        <ele>84.39</ele>
        <time>2015-03-12T14:02:36Z</time>
      </trkpt>
      <trkpt lat="45.18499" lon="0.62972">
        <ele>85.89</ele>
        <time>2015-03-12T14:02:43Z</time>
      </trkpt>
      <trkpt lat="45.18494" lon="0.6294">
        <ele>86.8</ele>
        <time>2015-03-12T14:02:48Z</time>
      </trkpt>
      <trkpt lat="45.18488" lon="0.62901">
        <ele>88.6</ele>
        <time>2015-03-12T14:02:54Z</time>
      </trkpt>
      <trkpt lat="45.18499" lon="0.62864">
        <ele>84.89</ele>
        <time>2015-03-12T14:03:00Z</time>
      </trkpt>
      <trkpt lat="45.18509" lon="0.62833">
        <ele>81</ele>
        <time>2015-03-12T14:03:05Z</time>
      </trkpt>
      <trkpt lat="45.18517" lon="0.6281">
        <ele>78.19</ele>
        <time>2015-03-12T14:03:09Z</time>
      </trkpt>
      <trkpt lat="45.18512" lon="0.62784">
        <ele>76.19</ele>
        <time>2015-03-12T14:03:14Z</time>
      </trkpt>
      <trkpt lat="45.18488" lon="0.62773">
        <ele>76.8</ele>
        <time>2015-03-12T14:03:19Z</time>
      </trkpt>
      <trkpt lat="45.18453" lon="0.62762">
        <ele>74.69</ele>
        <time>2015-03-12T14:03:25Z</time>
      </trkpt>
      <trkpt lat="45.18418" lon="0.62759">
        <ele>79</ele>
        <time>2015-03-12T14:03:32Z</time>
      </trkpt>
      <trkpt lat="45.1841" lon="0.6275">
        <ele>81.39</ele>
        <time>2015-03-12T14:03:37Z</time>
      </trkpt>
      <trkpt lat="45.18387" lon="0.62749">
        <ele>79.1</ele>
        <time>2015-03-12T14:03:48Z</time>
      </trkpt>
      <trkpt lat="45.1837" lon="0.62748">
        <ele>81.6</ele>
        <time>2015-03-12T14:03:54Z</time>
      </trkpt>
      <trkpt lat="45.18349" lon="0.62747">
        <ele>83.6</ele>
        <time>2015-03-12T14:04:01Z</time>
      </trkpt>
      <trkpt lat="45.18345" lon="0.62727">
        <ele>84.1</ele>
        <time>2015-03-12T14:04:06Z</time>
      </trkpt>
      <trkpt lat="45.18341" lon="0.62697">
        <ele>83</ele>
        <time>2015-03-12T14:04:12Z</time>
      </trkpt>
      <trkpt lat="45.18334" lon="0.62667">
        <ele>86.3</ele>
        <time>2015-03-12T14:04:18Z</time>
      </trkpt>
      <trkpt lat="45.18326" lon="0.62641">
        <ele>86.19</ele>
        <time>2015-03-12T14:04:23Z</time>
      </trkpt>
      <trkpt lat="45.18316" lon="0.62619">
        <ele>86.69</ele>
        <time>2015-03-12T14:04:28Z</time>
      </trkpt>
      <trkpt lat="45.18301" lon="0.62592">
        <ele>86.39</ele>
        <time>2015-03-12T14:04:35Z</time>
      </trkpt>
      <trkpt lat="45.18286" lon="0.62571">
        <ele>86.39</ele>
        <time>2015-03-12T14:04:41Z</time>
      </trkpt>
      <trkpt lat="45.1827" lon="0.6255">
        <ele>87.39</ele>
        <time>2015-03-12T14:04:47Z</time>
      </trkpt>
      <trkpt lat="45.1825" lon="0.62528">
        <ele>90.39</ele>
        <time>2015-03-12T14:04:54Z</time>
      </trkpt>
      <trkpt lat="45.18232" lon="0.62509">
        <ele>91.5</ele>
        <time>2015-03-12T14:05:00Z</time>
      </trkpt>
      <trkpt lat="45.18212" lon="0.62494">
        <ele>92.6</ele>
        <time>2015-03-12T14:05:06Z</time>
      </trkpt>
      <trkpt lat="45.18192" lon="0.62478">
        <ele>94.89</ele>
        <time>2015-03-12T14:05:12Z</time>
      </trkpt>
      <trkpt lat="45.18175" lon="0.62466">
        <ele>93.89</ele>
        <time>2015-03-12T14:05:17Z</time>
      </trkpt>
      <trkpt lat="45.18149" lon="0.62446">
        <ele>95.6</ele>
        <time>2015-03-12T14:05:24Z</time>
      </trkpt>
      <trkpt lat="45.18136" lon="0.62438">
        <ele>97.69</ele>
        <time>2015-03-12T14:05:27Z</time>
      </trkpt>
      <trkpt lat="45.18117" lon="0.62423">
        <ele>97.69</ele>
        <time>2015-03-12T14:05:32Z</time>
      </trkpt>
      <trkpt lat="45.18101" lon="0.62402">
        <ele>97</ele>
        <time>2015-03-12T14:05:37Z</time>
      </trkpt>
      <trkpt lat="45.18078" lon="0.62378">
        <ele>96.6</ele>
        <time>2015-03-12T14:05:43Z</time>
      </trkpt>
      <trkpt lat="45.18062" lon="0.62352">
        <ele>96.39</ele>
        <time>2015-03-12T14:05:48Z</time>
      </trkpt>
      <trkpt lat="45.18042" lon="0.62324">
        <ele>96.69</ele>
        <time>2015-03-12T14:05:54Z</time>
      </trkpt>
      <trkpt lat="45.18029" lon="0.62296">
        <ele>94.6</ele>
        <time>2015-03-12T14:05:59Z</time>
      </trkpt>
      <trkpt lat="45.18" lon="0.6225">
        <ele>95.89</ele>
        <time>2015-03-12T14:06:06Z</time>
      </trkpt>
      <trkpt lat="45.1798" lon="0.6221">
        <ele>95</ele>
        <time>2015-03-12T14:06:12Z</time>
      </trkpt>
      <trkpt lat="45.1796" lon="0.62171">
        <ele>92.5</ele>
        <time>2015-03-12T14:06:18Z</time>
      </trkpt>
      <trkpt lat="45.1794" lon="0.62134">
        <ele>90.6</ele>
        <time>2015-03-12T14:06:24Z</time>
      </trkpt>
      <trkpt lat="45.17921" lon="0.62103">
        <ele>89.89</ele>
        <time>2015-03-12T14:06:29Z</time>
      </trkpt>
      <trkpt lat="45.17899" lon="0.62067">
        <ele>90.8</ele>
        <time>2015-03-12T14:06:34Z</time>
      </trkpt>
      <trkpt lat="45.17888" lon="0.62047">
        <ele>91.39</ele>
        <time>2015-03-12T14:06:37Z</time>
      </trkpt>
      <trkpt lat="45.17865" lon="0.62007">
        <ele>90.5</ele>
        <time>2015-03-12T14:06:43Z</time>
      </trkpt>
      <trkpt lat="45.17856" lon="0.61985">
        <ele>90.3</ele>
        <time>2015-03-12T14:06:46Z</time>
      </trkpt>
      <trkpt lat="45.17833" lon="0.61945">
        <ele>85.89</ele>
        <time>2015-03-12T14:06:52Z</time>
      </trkpt>
      <trkpt lat="45.17822" lon="0.61925">
        <ele>85.89</ele>
        <time>2015-03-12T14:06:55Z</time>
      </trkpt>
      <trkpt lat="45.17804" lon="0.61893">
        <ele>89.69</ele>
        <time>2015-03-12T14:07:00Z</time>
      </trkpt>
      <trkpt lat="45.17781" lon="0.61848">
        <ele>86.6</ele>
        <time>2015-03-12T14:07:06Z</time>
      </trkpt>
      <trkpt lat="45.1777" lon="0.61828">
        <ele>86.39</ele>
        <time>2015-03-12T14:07:09Z</time>
      </trkpt>
      <trkpt lat="45.17747" lon="0.61788">
        <ele>86.19</ele>
        <time>2015-03-12T14:07:15Z</time>
      </trkpt>
      <trkpt lat="45.17725" lon="0.61748">
        <ele>85.1</ele>
        <time>2015-03-12T14:07:21Z</time>
      </trkpt>
      <trkpt lat="45.17708" lon="0.61717">
        <ele>86.1</ele>
        <time>2015-03-12T14:07:26Z</time>
      </trkpt>
      <trkpt lat="45.17689" lon="0.61687">
        <ele>86.1</ele>
        <time>2015-03-12T14:07:31Z</time>
      </trkpt>
      <trkpt lat="45.17672" lon="0.61654">
        <ele>87.6</ele>
        <time>2015-03-12T14:07:37Z</time>
      </trkpt>
      <trkpt lat="45.17663" lon="0.61637">
        <ele>88.1</ele>
        <time>2015-03-12T14:07:40Z</time>
      </trkpt>
      <trkpt lat="45.17646" lon="0.61605">
        <ele>87.39</ele>
        <time>2015-03-12T14:07:46Z</time>
      </trkpt>
      <trkpt lat="45.17637" lon="0.61589">
        <ele>87.39</ele>
        <time>2015-03-12T14:07:49Z</time>
      </trkpt>
      <trkpt lat="45.17627" lon="0.61573">
        <ele>87.39</ele>
        <time>2015-03-12T14:07:52Z</time>
      </trkpt>
      <trkpt lat="45.17619" lon="0.61558">
        <ele>87.1</ele>
        <time>2015-03-12T14:07:55Z</time>
      </trkpt>
      <trkpt lat="45.17608" lon="0.61536">
        <ele>84.3</ele>
        <time>2015-03-12T14:07:59Z</time>
      </trkpt>
      <trkpt lat="45.17588" lon="0.615">
        <ele>84.5</ele>
        <time>2015-03-12T14:08:06Z</time>
      </trkpt>
      <trkpt lat="45.17573" lon="0.61474">
        <ele>87</ele>
        <time>2015-03-12T14:08:11Z</time>
      </trkpt>
      <trkpt lat="45.17564" lon="0.6146">
        <ele>88.8</ele>
        <time>2015-03-12T14:08:14Z</time>
      </trkpt>
      <trkpt lat="45.17556" lon="0.61445">
        <ele>89.69</ele>
        <time>2015-03-12T14:08:17Z</time>
      </trkpt>
      <trkpt lat="45.17549" lon="0.61429">
        <ele>89.19</ele>
        <time>2015-03-12T14:08:20Z</time>
      </trkpt>
      <trkpt lat="45.17533" lon="0.614">
        <ele>90.19</ele>
        <time>2015-03-12T14:08:26Z</time>
      </trkpt>
      <trkpt lat="45.17517" lon="0.61372">
        <ele>90.6</ele>
        <time>2015-03-12T14:08:32Z</time>
      </trkpt>
      <trkpt lat="45.17504" lon="0.61347">
        <ele>90.6</ele>
        <time>2015-03-12T14:08:37Z</time>
      </trkpt>
      <trkpt lat="45.17489" lon="0.6132">
        <ele>90.69</ele>
        <time>2015-03-12T14:08:43Z</time>
      </trkpt>
      <trkpt lat="45.17481" lon="0.61307">
        <ele>90.39</ele>
        <time>2015-03-12T14:08:46Z</time>
      </trkpt>
      <trkpt lat="45.17461" lon="0.6128">
        <ele>89.1</ele>
        <time>2015-03-12T14:08:52Z</time>
      </trkpt>
      <trkpt lat="45.17449" lon="0.61251">
        <ele>88.1</ele>
        <time>2015-03-12T14:08:57Z</time>
      </trkpt>
      <trkpt lat="45.1744" lon="0.61234">
        <ele>87.5</ele>
        <time>2015-03-12T14:09:00Z</time>
      </trkpt>
      <trkpt lat="45.17424" lon="0.61207">
        <ele>88.19</ele>
        <time>2015-03-12T14:09:05Z</time>
      </trkpt>
      <trkpt lat="45.17403" lon="0.61169">
        <ele>86.3</ele>
        <time>2015-03-12T14:09:11Z</time>
      </trkpt>
      <trkpt lat="45.17387" lon="0.61136">
        <ele>83.8</ele>
        <time>2015-03-12T14:09:16Z</time>
      </trkpt>
      <trkpt lat="45.17365" lon="0.61102">
        <ele>85.69</ele>
        <time>2015-03-12T14:09:21Z</time>
      </trkpt>
      <trkpt lat="45.17341" lon="0.61061">
        <ele>85.5</ele>
        <time>2015-03-12T14:09:27Z</time>
      </trkpt>
      <trkpt lat="45.17321" lon="0.61019">
        <ele>79.39</ele>
        <time>2015-03-12T14:09:33Z</time>
      </trkpt>
      <trkpt lat="45.17302" lon="0.60981">
        <ele>78.19</ele>
        <time>2015-03-12T14:09:39Z</time>
      </trkpt>
      <trkpt lat="45.17283" lon="0.60944">
        <ele>78.69</ele>
        <time>2015-03-12T14:09:45Z</time>
      </trkpt>
      <trkpt lat="45.17263" lon="0.60911">
        <ele>80.8</ele>
        <time>2015-03-12T14:09:51Z</time>
      </trkpt>
      <trkpt lat="45.17253" lon="0.60893">
        <ele>81.3</ele>
        <time>2015-03-12T14:09:54Z</time>
      </trkpt>
      <trkpt lat="45.1723" lon="0.60852">
        <ele>82.1</ele>
        <time>2015-03-12T14:10:00Z</time>
      </trkpt>
      <trkpt lat="45.17203" lon="0.60811">
        <ele>86.8</ele>
        <time>2015-03-12T14:10:06Z</time>
      </trkpt>
      <trkpt lat="45.17191" lon="0.60798">
        <ele>86.89</ele>
        <time>2015-03-12T14:10:09Z</time>
      </trkpt>
      <trkpt lat="45.17171" lon="0.60768">
        <ele>84.89</ele>
        <time>2015-03-12T14:10:14Z</time>
      </trkpt>
      <trkpt lat="45.17137" lon="0.60739">
        <ele>80.8</ele>
        <time>2015-03-12T14:10:19Z</time>
      </trkpt>
      <trkpt lat="45.17096" lon="0.60692">
        <ele>77.4</ele>
        <time>2015-03-12T14:10:26Z</time>
      </trkpt>
      <trkpt lat="45.17065" lon="0.6066">
        <ele>78.19</ele>
        <time>2015-03-12T14:10:31Z</time>
      </trkpt>
      <trkpt lat="45.17042" lon="0.60633">
        <ele>79.3</ele>
        <time>2015-03-12T14:10:34Z</time>
      </trkpt>
      <trkpt lat="45.17027" lon="0.60615">
        <ele>77.3</ele>
        <time>2015-03-12T14:10:38Z</time>
      </trkpt>
      <trkpt lat="45.17012" lon="0.60597">
        <ele>76.3</ele>
        <time>2015-03-12T14:10:41Z</time>
      </trkpt>
      <trkpt lat="45.16986" lon="0.60566">
        <ele>75.69</ele>
        <time>2015-03-12T14:10:46Z</time>
      </trkpt>
      <trkpt lat="45.16957" lon="0.60532">
        <ele>73.9</ele>
        <time>2015-03-12T14:10:52Z</time>
      </trkpt>
      <trkpt lat="45.16935" lon="0.60506">
        <ele>71.19</ele>
        <time>2015-03-12T14:10:57Z</time>
      </trkpt>
      <trkpt lat="45.16911" lon="0.60478">
        <ele>71.5</ele>
        <time>2015-03-12T14:11:03Z</time>
      </trkpt>
      <trkpt lat="45.16891" lon="0.60454">
        <ele>70.5</ele>
        <time>2015-03-12T14:11:08Z</time>
      </trkpt>
      <trkpt lat="45.16871" lon="0.60431">
        <ele>71.9</ele>
        <time>2015-03-12T14:11:13Z</time>
      </trkpt>
      <trkpt lat="45.16847" lon="0.60405">
        <ele>72.9</ele>
        <time>2015-03-12T14:11:19Z</time>
      </trkpt>
      <trkpt lat="45.16832" lon="0.60387">
        <ele>72.9</ele>
        <time>2015-03-12T14:11:23Z</time>
      </trkpt>
      <trkpt lat="45.16814" lon="0.60365">
        <ele>74.3</ele>
        <time>2015-03-12T14:11:28Z</time>
      </trkpt>
      <trkpt lat="45.1679" lon="0.60338">
        <ele>72.8</ele>
        <time>2015-03-12T14:11:35Z</time>
      </trkpt>
      <trkpt lat="45.16771" lon="0.60314">
        <ele>72</ele>
        <time>2015-03-12T14:11:40Z</time>
      </trkpt>
      <trkpt lat="45.16747" lon="0.60286">
        <ele>71.8</ele>
        <time>2015-03-12T14:11:46Z</time>
      </trkpt>
      <trkpt lat="45.16725" lon="0.60261">
        <ele>73.4</ele>
        <time>2015-03-12T14:11:51Z</time>
      </trkpt>
      <trkpt lat="45.16702" lon="0.60234">
        <ele>74.19</ele>
        <time>2015-03-12T14:11:57Z</time>
      </trkpt>
      <trkpt lat="45.16691" lon="0.60221">
        <ele>74.69</ele>
        <time>2015-03-12T14:12:00Z</time>
      </trkpt>
      <trkpt lat="45.16669" lon="0.60197">
        <ele>77.5</ele>
        <time>2015-03-12T14:12:06Z</time>
      </trkpt>
      <trkpt lat="45.16651" lon="0.60182">
        <ele>78.69</ele>
        <time>2015-03-12T14:12:11Z</time>
      </trkpt>
      <trkpt lat="45.16628" lon="0.60154">
        <ele>78.5</ele>
        <time>2015-03-12T14:12:18Z</time>
      </trkpt>
      <trkpt lat="45.16603" lon="0.60125">
        <ele>79.6</ele>
        <time>2015-03-12T14:12:25Z</time>
      </trkpt>
      <trkpt lat="45.16586" lon="0.60104">
        <ele>82.5</ele>
        <time>2015-03-12T14:12:30Z</time>
      </trkpt>
      <trkpt lat="45.16565" lon="0.6008">
        <ele>82.89</ele>
        <time>2015-03-12T14:12:36Z</time>
      </trkpt>
      <trkpt lat="45.16544" lon="0.60056">
        <ele>82.3</ele>
        <time>2015-03-12T14:12:43Z</time>
      </trkpt>
      <trkpt lat="45.16518" lon="0.60025">
        <ele>81.8</ele>
        <time>2015-03-12T14:12:51Z</time>
      </trkpt>
      <trkpt lat="45.16493" lon="0.6">
        <ele>81.6</ele>
        <time>2015-03-12T14:12:58Z</time>
      </trkpt>
      <trkpt lat="45.16473" lon="0.59977">
        <ele>81.89</ele>
        <time>2015-03-12T14:13:04Z</time>
      </trkpt>
      <trkpt lat="45.16456" lon="0.59957">
        <ele>81.69</ele>
        <time>2015-03-12T14:13:09Z</time>
      </trkpt>
      <trkpt lat="45.16434" lon="0.59929">
        <ele>77.19</ele>
        <time>2015-03-12T14:13:16Z</time>
      </trkpt>
      <trkpt lat="45.16405" lon="0.59893">
        <ele>77.09</ele>
        <time>2015-03-12T14:13:24Z</time>
      </trkpt>
      <trkpt lat="45.16379" lon="0.59866">
        <ele>77</ele>
        <time>2015-03-12T14:13:30Z</time>
      </trkpt>
      <trkpt lat="45.16355" lon="0.59845">
        <ele>77.3</ele>
        <time>2015-03-12T14:13:35Z</time>
      </trkpt>
      <trkpt lat="45.16329" lon="0.5983">
        <ele>78.09</ele>
        <time>2015-03-12T14:13:40Z</time>
      </trkpt>
      <trkpt lat="45.16303" lon="0.59861">
        <ele>81.3</ele>
        <time>2015-03-12T14:13:47Z</time>
      </trkpt>
      <trkpt lat="45.16281" lon="0.59883">
        <ele>81.3</ele>
        <time>2015-03-12T14:13:53Z</time>
      </trkpt>
      <trkpt lat="45.16267" lon="0.59898">
        <ele>82.5</ele>
        <time>2015-03-12T14:13:58Z</time>
      </trkpt>
      <trkpt lat="45.16255" lon="0.59913">
        <ele>85.19</ele>
        <time>2015-03-12T14:14:03Z</time>
      </trkpt>
      <trkpt lat="45.16242" lon="0.59939">
        <ele>86</ele>
        <time>2015-03-12T14:14:11Z</time>
      </trkpt>
      <trkpt lat="45.16214" lon="0.59927">
        <ele>87.5</ele>
        <time>2015-03-12T14:14:20Z</time>
      </trkpt>
      <trkpt lat="45.16199" lon="0.59941">
        <ele>89.69</ele>
        <time>2015-03-12T14:14:26Z</time>
      </trkpt>
      <trkpt lat="45.16177" lon="0.59966">
        <ele>91.1</ele>
        <time>2015-03-12T14:14:33Z</time>
      </trkpt>
      <trkpt lat="45.16161" lon="0.59987">
        <ele>90.69</ele>
        <time>2015-03-12T14:14:39Z</time>
      </trkpt>
      <trkpt lat="45.16139" lon="0.6001">
        <ele>92</ele>
        <time>2015-03-12T14:14:46Z</time>
      </trkpt>
      <trkpt lat="45.16129" lon="0.6002">
        <ele>92.8</ele>
        <time>2015-03-12T14:14:49Z</time>
      </trkpt>
      <trkpt lat="45.16109" lon="0.60044">
        <ele>91.8</ele>
        <time>2015-03-12T14:14:56Z</time>
      </trkpt>
      <trkpt lat="45.16095" lon="0.60062">
        <ele>91</ele>
        <time>2015-03-12T14:15:01Z</time>
      </trkpt>
      <trkpt lat="45.16086" lon="0.60072">
        <ele>90.6</ele>
        <time>2015-03-12T14:15:04Z</time>
      </trkpt>
      <trkpt lat="45.16078" lon="0.60084">
        <ele>92.1</ele>
        <time>2015-03-12T14:15:07Z</time>
      </trkpt>
      <trkpt lat="45.16068" lon="0.60095">
        <ele>92.69</ele>
        <time>2015-03-12T14:15:10Z</time>
      </trkpt>
      <trkpt lat="45.16059" lon="0.60105">
        <ele>91.69</ele>
        <time>2015-03-12T14:15:13Z</time>
      </trkpt>
      <trkpt lat="45.1605" lon="0.60116">
        <ele>92.8</ele>
        <time>2015-03-12T14:15:16Z</time>
      </trkpt>
      <trkpt lat="45.16041" lon="0.60128">
        <ele>94.39</ele>
        <time>2015-03-12T14:15:19Z</time>
      </trkpt>
      <trkpt lat="45.16024" lon="0.6015">
        <ele>94.5</ele>
        <time>2015-03-12T14:15:25Z</time>
      </trkpt>
      <trkpt lat="45.16017" lon="0.60162">
        <ele>94.89</ele>
        <time>2015-03-12T14:15:28Z</time>
      </trkpt>
      <trkpt lat="45.16004" lon="0.60175">
        <ele>95.6</ele>
        <time>2015-03-12T14:15:32Z</time>
      </trkpt>
      <trkpt lat="45.15988" lon="0.60193">
        <ele>95.39</ele>
        <time>2015-03-12T14:15:37Z</time>
      </trkpt>
      <trkpt lat="45.15968" lon="0.60221">
        <ele>97.39</ele>
        <time>2015-03-12T14:15:44Z</time>
      </trkpt>
      <trkpt lat="45.15964" lon="0.60238">
        <ele>95.19</ele>
        <time>2015-03-12T14:15:49Z</time>
      </trkpt>
      <trkpt lat="45.15982" lon="0.6028">
        <ele>97.19</ele>
        <time>2015-03-12T14:15:57Z</time>
      </trkpt>
      <trkpt lat="45.15994" lon="0.60306">
        <ele>97.39</ele>
        <time>2015-03-12T14:16:03Z</time>
      </trkpt>
      <trkpt lat="45.15994" lon="0.60332">
        <ele>97.8</ele>
        <time>2015-03-12T14:16:10Z</time>
      </trkpt>
      <trkpt lat="45.15966" lon="0.60354">
        <ele>94.69</ele>
        <time>2015-03-12T14:16:17Z</time>
      </trkpt>
      <trkpt lat="45.15944" lon="0.60376">
        <ele>97.89</ele>
        <time>2015-03-12T14:16:24Z</time>
      </trkpt>
      <trkpt lat="45.1593" lon="0.6039">
        <ele>98</ele>
        <time>2015-03-12T14:16:29Z</time>
      </trkpt>
      <trkpt lat="45.1591" lon="0.60414">
        <ele>99.3</ele>
        <time>2015-03-12T14:16:36Z</time>
      </trkpt>
      <trkpt lat="45.15893" lon="0.60435">
        <ele>100.69</ele>
        <time>2015-03-12T14:16:42Z</time>
      </trkpt>
      <trkpt lat="45.15884" lon="0.60441">
        <ele>101.69</ele>
        <time>2015-03-12T14:16:45Z</time>
      </trkpt>
      <trkpt lat="45.15857" lon="0.6045">
        <ele>102.69</ele>
        <time>2015-03-12T14:16:52Z</time>
      </trkpt>
      <trkpt lat="45.15828" lon="0.60455">
        <ele>101.39</ele>
        <time>2015-03-12T14:16:59Z</time>
      </trkpt>
      <trkpt lat="45.15807" lon="0.60473">
        <ele>100.89</ele>
        <time>2015-03-12T14:17:05Z</time>
      </trkpt>
      <trkpt lat="45.15791" lon="0.60497">
        <ele>101</ele>
        <time>2015-03-12T14:17:11Z</time>
      </trkpt>
      <trkpt lat="45.15784" lon="0.60509">
        <ele>102</ele>
        <time>2015-03-12T14:17:14Z</time>
      </trkpt>
      <trkpt lat="45.15778" lon="0.60521">
        <ele>102.3</ele>
        <time>2015-03-12T14:17:16Z</time>
      </trkpt>
      <trkpt lat="45.15769" lon="0.60537">
        <ele>102.6</ele>
        <time>2015-03-12T14:17:21Z</time>
      </trkpt>
      <trkpt lat="45.15753" lon="0.60555">
        <ele>102.8</ele>
        <time>2015-03-12T14:17:27Z</time>
      </trkpt>
      <trkpt lat="45.15739" lon="0.60573">
        <ele>103.19</ele>
        <time>2015-03-12T14:17:33Z</time>
      </trkpt>
      <trkpt lat="45.15719" lon="0.60591">
        <ele>101.39</ele>
        <time>2015-03-12T14:17:41Z</time>
      </trkpt>
      <trkpt lat="45.15694" lon="0.60603">
        <ele>104.5</ele>
        <time>2015-03-12T14:17:49Z</time>
      </trkpt>
      <trkpt lat="45.15676" lon="0.60608">
        <ele>103.8</ele>
        <time>2015-03-12T14:17:55Z</time>
      </trkpt>
      <trkpt lat="45.15661" lon="0.60609">
        <ele>102.8</ele>
        <time>2015-03-12T14:18:00Z</time>
      </trkpt>
      <trkpt lat="45.15639" lon="0.60608">
        <ele>102.69</ele>
        <time>2015-03-12T14:18:08Z</time>
      </trkpt>
      <trkpt lat="45.15619" lon="0.60605">
        <ele>99.89</ele>
        <time>2015-03-12T14:18:17Z</time>
      </trkpt>
      <trkpt lat="45.15607" lon="0.60625">
        <ele>100.1</ele>
        <time>2015-03-12T14:18:28Z</time>
      </trkpt>
      <trkpt lat="45.15607" lon="0.60654">
        <ele>102.5</ele>
        <time>2015-03-12T14:18:35Z</time>
      </trkpt>
      <trkpt lat="45.15606" lon="0.60688">
        <ele>104</ele>
        <time>2015-03-12T14:18:43Z</time>
      </trkpt>
      <trkpt lat="45.15604" lon="0.60726">
        <ele>104.5</ele>
        <time>2015-03-12T14:18:51Z</time>
      </trkpt>
      <trkpt lat="45.156" lon="0.60762">
        <ele>104.8</ele>
        <time>2015-03-12T14:18:58Z</time>
      </trkpt>
      <trkpt lat="45.15597" lon="0.60802">
        <ele>105</ele>
        <time>2015-03-12T14:19:05Z</time>
      </trkpt>
      <trkpt lat="45.15596" lon="0.6082">
        <ele>104.8</ele>
        <time>2015-03-12T14:19:08Z</time>
      </trkpt>
      <trkpt lat="45.15596" lon="0.60839">
        <ele>106</ele>
        <time>2015-03-12T14:19:11Z</time>
      </trkpt>
      <trkpt lat="45.15595" lon="0.60857">
        <ele>106.6</ele>
        <time>2015-03-12T14:19:14Z</time>
      </trkpt>
      <trkpt lat="45.15595" lon="0.60875">
        <ele>107.6</ele>
        <time>2015-03-12T14:19:17Z</time>
      </trkpt>
      <trkpt lat="45.15593" lon="0.60911">
        <ele>108.69</ele>
        <time>2015-03-12T14:19:23Z</time>
      </trkpt>
      <trkpt lat="45.1559" lon="0.60945">
        <ele>108.69</ele>
        <time>2015-03-12T14:19:29Z</time>
      </trkpt>
      <trkpt lat="45.15587" lon="0.60972">
        <ele>109.69</ele>
        <time>2015-03-12T14:19:35Z</time>
      </trkpt>
      <trkpt lat="45.15602" lon="0.60978">
        <ele>107.6</ele>
        <time>2015-03-12T14:19:43Z</time>
      </trkpt>
      <trkpt lat="45.15631" lon="0.60967">
        <ele>106.1</ele>
        <time>2015-03-12T14:19:49Z</time>
      </trkpt>
      <trkpt lat="45.15646" lon="0.60973">
        <ele>106.3</ele>
        <time>2015-03-12T14:19:52Z</time>
      </trkpt>
      <trkpt lat="45.15656" lon="0.60987">
        <ele>105.8</ele>
        <time>2015-03-12T14:19:55Z</time>
      </trkpt>
      <trkpt lat="45.15665" lon="0.61002">
        <ele>105.19</ele>
        <time>2015-03-12T14:19:57Z</time>
      </trkpt>
      <trkpt lat="45.15676" lon="0.61018">
        <ele>105.89</ele>
        <time>2015-03-12T14:20:01Z</time>
      </trkpt>
      <trkpt lat="45.15689" lon="0.61035">
        <ele>105.69</ele>
        <time>2015-03-12T14:20:04Z</time>
      </trkpt>
      <trkpt lat="45.1571" lon="0.61057">
        <ele>104.1</ele>
        <time>2015-03-12T14:20:08Z</time>
      </trkpt>
      <trkpt lat="45.15735" lon="0.61093">
        <ele>103.19</ele>
        <time>2015-03-12T14:20:13Z</time>
      </trkpt>
      <trkpt lat="45.1576" lon="0.61129">
        <ele>102.3</ele>
        <time>2015-03-12T14:20:18Z</time>
      </trkpt>
      <trkpt lat="45.15779" lon="0.61151">
        <ele>103.1</ele>
        <time>2015-03-12T14:20:26Z</time>
      </trkpt>
      <trkpt lat="45.15799" lon="0.61166">
        <ele>104.39</ele>
        <time>2015-03-12T14:20:31Z</time>
      </trkpt>
      <trkpt lat="45.15826" lon="0.61185">
        <ele>102.6</ele>
        <time>2015-03-12T14:20:37Z</time>
      </trkpt>
      <trkpt lat="45.15855" lon="0.61209">
        <ele>102.6</ele>
        <time>2015-03-12T14:20:43Z</time>
      </trkpt>
      <trkpt lat="45.15888" lon="0.6123">
        <ele>101.39</ele>
        <time>2015-03-12T14:20:49Z</time>
      </trkpt>
      <trkpt lat="45.15912" lon="0.61251">
        <ele>98.69</ele>
        <time>2015-03-12T14:20:54Z</time>
      </trkpt>
      <trkpt lat="45.15936" lon="0.6127">
        <ele>98.6</ele>
        <time>2015-03-12T14:20:58Z</time>
      </trkpt>
      <trkpt lat="45.15969" lon="0.61296">
        <ele>96.19</ele>
        <time>2015-03-12T14:21:05Z</time>
      </trkpt>
      <trkpt lat="45.15993" lon="0.61317">
        <ele>94.39</ele>
        <time>2015-03-12T14:21:11Z</time>
      </trkpt>
      <trkpt lat="45.16034" lon="0.61344">
        <ele>95.19</ele>
        <time>2015-03-12T14:21:17Z</time>
      </trkpt>
      <trkpt lat="45.16059" lon="0.61373">
        <ele>91</ele>
        <time>2015-03-12T14:21:24Z</time>
      </trkpt>
      <trkpt lat="45.16044" lon="0.61419">
        <ele>85.19</ele>
        <time>2015-03-12T14:21:32Z</time>
      </trkpt>
      <trkpt lat="45.16029" lon="0.61463">
        <ele>83.5</ele>
        <time>2015-03-12T14:21:38Z</time>
      </trkpt>
      <trkpt lat="45.16015" lon="0.61511">
        <ele>84.19</ele>
        <time>2015-03-12T14:21:44Z</time>
      </trkpt>
      <trkpt lat="45.16004" lon="0.6155">
        <ele>83.6</ele>
        <time>2015-03-12T14:21:49Z</time>
      </trkpt>
      <trkpt lat="45.15994" lon="0.61588">
        <ele>82.6</ele>
        <time>2015-03-12T14:21:54Z</time>
      </trkpt>
      <trkpt lat="45.15983" lon="0.61629">
        <ele>83.6</ele>
        <time>2015-03-12T14:21:59Z</time>
      </trkpt>
      <trkpt lat="45.15976" lon="0.61653">
        <ele>83</ele>
        <time>2015-03-12T14:22:02Z</time>
      </trkpt>
      <trkpt lat="45.15961" lon="0.61698">
        <ele>84.3</ele>
        <time>2015-03-12T14:22:08Z</time>
      </trkpt>
      <trkpt lat="45.1595" lon="0.61735">
        <ele>85.89</ele>
        <time>2015-03-12T14:22:13Z</time>
      </trkpt>
      <trkpt lat="45.15939" lon="0.61776">
        <ele>86.5</ele>
        <time>2015-03-12T14:22:19Z</time>
      </trkpt>
      <trkpt lat="45.15928" lon="0.61813">
        <ele>89.3</ele>
        <time>2015-03-12T14:22:24Z</time>
      </trkpt>
      <trkpt lat="45.15915" lon="0.61856">
        <ele>90.3</ele>
        <time>2015-03-12T14:22:30Z</time>
      </trkpt>
      <trkpt lat="45.15905" lon="0.61887">
        <ele>91.39</ele>
        <time>2015-03-12T14:22:35Z</time>
      </trkpt>
      <trkpt lat="45.15895" lon="0.61922">
        <ele>90.39</ele>
        <time>2015-03-12T14:22:40Z</time>
      </trkpt>
      <trkpt lat="45.15883" lon="0.61965">
        <ele>91.5</ele>
        <time>2015-03-12T14:22:46Z</time>
      </trkpt>
      <trkpt lat="45.15871" lon="0.62005">
        <ele>90.89</ele>
        <time>2015-03-12T14:22:52Z</time>
      </trkpt>
      <trkpt lat="45.1586" lon="0.62049">
        <ele>93.3</ele>
        <time>2015-03-12T14:22:58Z</time>
      </trkpt>
      <trkpt lat="45.1585" lon="0.62084">
        <ele>92.89</ele>
        <time>2015-03-12T14:23:03Z</time>
      </trkpt>
      <trkpt lat="45.15836" lon="0.62126">
        <ele>93.3</ele>
        <time>2015-03-12T14:23:09Z</time>
      </trkpt>
      <trkpt lat="45.15831" lon="0.62147">
        <ele>93.8</ele>
        <time>2015-03-12T14:23:12Z</time>
      </trkpt>
      <trkpt lat="45.15825" lon="0.62168">
        <ele>95.39</ele>
        <time>2015-03-12T14:23:15Z</time>
      </trkpt>
      <trkpt lat="45.15817" lon="0.62196">
        <ele>95</ele>
        <time>2015-03-12T14:23:19Z</time>
      </trkpt>
      <trkpt lat="45.15806" lon="0.6224">
        <ele>94.5</ele>
        <time>2015-03-12T14:23:25Z</time>
      </trkpt>
      <trkpt lat="45.15793" lon="0.62278">
        <ele>91.3</ele>
        <time>2015-03-12T14:23:31Z</time>
      </trkpt>
      <trkpt lat="45.1578" lon="0.62326">
        <ele>91.39</ele>
        <time>2015-03-12T14:23:38Z</time>
      </trkpt>
      <trkpt lat="45.15758" lon="0.62362">
        <ele>90.39</ele>
        <time>2015-03-12T14:23:44Z</time>
      </trkpt>
      <trkpt lat="45.15745" lon="0.62383">
        <ele>89.39</ele>
        <time>2015-03-12T14:23:48Z</time>
      </trkpt>
      <trkpt lat="45.15728" lon="0.62411">
        <ele>90.1</ele>
        <time>2015-03-12T14:23:53Z</time>
      </trkpt>
      <trkpt lat="45.15705" lon="0.6244">
        <ele>90.6</ele>
        <time>2015-03-12T14:23:59Z</time>
      </trkpt>
      <trkpt lat="45.15679" lon="0.62473">
        <ele>93.3</ele>
        <time>2015-03-12T14:24:06Z</time>
      </trkpt>
      <trkpt lat="45.15662" lon="0.62497">
        <ele>93.6</ele>
        <time>2015-03-12T14:24:11Z</time>
      </trkpt>
      <trkpt lat="45.15642" lon="0.62525">
        <ele>91.1</ele>
        <time>2015-03-12T14:24:17Z</time>
      </trkpt>
      <trkpt lat="45.15621" lon="0.62558">
        <ele>91.89</ele>
        <time>2015-03-12T14:24:23Z</time>
      </trkpt>
      <trkpt lat="45.15604" lon="0.6259">
        <ele>91.8</ele>
        <time>2015-03-12T14:24:29Z</time>
      </trkpt>
      <trkpt lat="45.15592" lon="0.6262">
        <ele>92.69</ele>
        <time>2015-03-12T14:24:34Z</time>
      </trkpt>
      <trkpt lat="45.15583" lon="0.62659">
        <ele>93.6</ele>
        <time>2015-03-12T14:24:40Z</time>
      </trkpt>
      <trkpt lat="45.15573" lon="0.62694">
        <ele>94.19</ele>
        <time>2015-03-12T14:24:45Z</time>
      </trkpt>
      <trkpt lat="45.15563" lon="0.62727">
        <ele>93.5</ele>
        <time>2015-03-12T14:24:50Z</time>
      </trkpt>
      <trkpt lat="45.15553" lon="0.62759">
        <ele>93.89</ele>
        <time>2015-03-12T14:24:55Z</time>
      </trkpt>
      <trkpt lat="45.15545" lon="0.62791">
        <ele>93.8</ele>
        <time>2015-03-12T14:25:00Z</time>
      </trkpt>
      <trkpt lat="45.15533" lon="0.6283">
        <ele>95.5</ele>
        <time>2015-03-12T14:25:06Z</time>
      </trkpt>
      <trkpt lat="45.15527" lon="0.62849">
        <ele>93.69</ele>
        <time>2015-03-12T14:25:09Z</time>
      </trkpt>
      <trkpt lat="45.15517" lon="0.62873">
        <ele>94.69</ele>
        <time>2015-03-12T14:25:13Z</time>
      </trkpt>
      <trkpt lat="45.15508" lon="0.62901">
        <ele>96.3</ele>
        <time>2015-03-12T14:25:18Z</time>
      </trkpt>
      <trkpt lat="45.15494" lon="0.62933">
        <ele>95.8</ele>
        <time>2015-03-12T14:25:23Z</time>
      </trkpt>
      <trkpt lat="45.15478" lon="0.62964">
        <ele>96.1</ele>
        <time>2015-03-12T14:25:28Z</time>
      </trkpt>
      <trkpt lat="45.15466" lon="0.62993">
        <ele>96.8</ele>
        <time>2015-03-12T14:25:33Z</time>
      </trkpt>
      <trkpt lat="45.1545" lon="0.63027">
        <ele>95</ele>
        <time>2015-03-12T14:25:39Z</time>
      </trkpt>
      <trkpt lat="45.15441" lon="0.63046">
        <ele>94.69</ele>
        <time>2015-03-12T14:25:42Z</time>
      </trkpt>
      <trkpt lat="45.15428" lon="0.63078">
        <ele>92.5</ele>
        <time>2015-03-12T14:25:48Z</time>
      </trkpt>
      <trkpt lat="45.15412" lon="0.63114">
        <ele>91.39</ele>
        <time>2015-03-12T14:25:54Z</time>
      </trkpt>
      <trkpt lat="45.15401" lon="0.63138">
        <ele>92.39</ele>
        <time>2015-03-12T14:25:58Z</time>
      </trkpt>
      <trkpt lat="45.15386" lon="0.63169">
        <ele>93.19</ele>
        <time>2015-03-12T14:26:03Z</time>
      </trkpt>
      <trkpt lat="45.15367" lon="0.63211">
        <ele>94.1</ele>
        <time>2015-03-12T14:26:10Z</time>
      </trkpt>
      <trkpt lat="45.15352" lon="0.6324">
        <ele>93.8</ele>
        <time>2015-03-12T14:26:15Z</time>
      </trkpt>
      <trkpt lat="45.15335" lon="0.63273">
        <ele>95.8</ele>
        <time>2015-03-12T14:26:21Z</time>
      </trkpt>
      <trkpt lat="45.15319" lon="0.63308">
        <ele>95.3</ele>
        <time>2015-03-12T14:26:27Z</time>
      </trkpt>
      <trkpt lat="45.15304" lon="0.63345">
        <ele>95.89</ele>
        <time>2015-03-12T14:26:33Z</time>
      </trkpt>
      <trkpt lat="45.15295" lon="0.63362">
        <ele>96</ele>
        <time>2015-03-12T14:26:36Z</time>
      </trkpt>
      <trkpt lat="45.15281" lon="0.63398">
        <ele>93</ele>
        <time>2015-03-12T14:26:42Z</time>
      </trkpt>
      <trkpt lat="45.1527" lon="0.63423">
        <ele>88.5</ele>
        <time>2015-03-12T14:26:47Z</time>
      </trkpt>
      <trkpt lat="45.15251" lon="0.63463">
        <ele>91.69</ele>
        <time>2015-03-12T14:26:54Z</time>
      </trkpt>
      <trkpt lat="45.15235" lon="0.63496">
        <ele>93.8</ele>
        <time>2015-03-12T14:26:59Z</time>
      </trkpt>
      <trkpt lat="45.15227" lon="0.63516">
        <ele>95.1</ele>
        <time>2015-03-12T14:27:02Z</time>
      </trkpt>
      <trkpt lat="45.15219" lon="0.63534">
        <ele>96.39</ele>
        <time>2015-03-12T14:27:05Z</time>
      </trkpt>
      <trkpt lat="45.15205" lon="0.63557">
        <ele>95.8</ele>
        <time>2015-03-12T14:27:09Z</time>
      </trkpt>
      <trkpt lat="45.15184" lon="0.63602">
        <ele>94.89</ele>
        <time>2015-03-12T14:27:16Z</time>
      </trkpt>
      <trkpt lat="45.15168" lon="0.63634">
        <ele>96.39</ele>
        <time>2015-03-12T14:27:21Z</time>
      </trkpt>
      <trkpt lat="45.1515" lon="0.63672">
        <ele>98.39</ele>
        <time>2015-03-12T14:27:27Z</time>
      </trkpt>
      <trkpt lat="45.15135" lon="0.637">
        <ele>97.8</ele>
        <time>2015-03-12T14:27:32Z</time>
      </trkpt>
      <trkpt lat="45.15117" lon="0.63738">
        <ele>96.39</ele>
        <time>2015-03-12T14:27:39Z</time>
      </trkpt>
      <trkpt lat="45.15099" lon="0.63781">
        <ele>98.1</ele>
        <time>2015-03-12T14:27:46Z</time>
      </trkpt>
      <trkpt lat="45.15085" lon="0.63808">
        <ele>98.3</ele>
        <time>2015-03-12T14:27:51Z</time>
      </trkpt>
      <trkpt lat="45.15068" lon="0.63838">
        <ele>96.6</ele>
        <time>2015-03-12T14:27:57Z</time>
      </trkpt>
      <trkpt lat="45.1505" lon="0.6387">
        <ele>97.6</ele>
        <time>2015-03-12T14:28:03Z</time>
      </trkpt>
      <trkpt lat="45.15035" lon="0.63897">
        <ele>99.8</ele>
        <time>2015-03-12T14:28:09Z</time>
      </trkpt>
      <trkpt lat="45.15022" lon="0.63921">
        <ele>98.8</ele>
        <time>2015-03-12T14:28:15Z</time>
      </trkpt>
      <trkpt lat="45.15006" lon="0.63941">
        <ele>101.3</ele>
        <time>2015-03-12T14:28:22Z</time>
      </trkpt>
      <trkpt lat="45.1499" lon="0.63963">
        <ele>101.69</ele>
        <time>2015-03-12T14:28:29Z</time>
      </trkpt>
      <trkpt lat="45.14985" lon="0.63978">
        <ele>100.3</ele>
        <time>2015-03-12T14:28:34Z</time>
      </trkpt>
      <trkpt lat="45.15021" lon="0.63977">
        <ele>98</ele>
        <time>2015-03-12T14:28:44Z</time>
      </trkpt>
      <trkpt lat="45.15035" lon="0.63965">
        <ele>100.1</ele>
        <time>2015-03-12T14:28:51Z</time>
      </trkpt>
      <trkpt lat="45.1505" lon="0.63957">
        <ele>99.5</ele>
        <time>2015-03-12T14:29:00Z</time>
      </trkpt>
      <trkpt lat="45.15066" lon="0.63951">
        <ele>102.1</ele>
        <time>2015-03-12T14:29:12Z</time>
      </trkpt>
      <trkpt lat="45.1508" lon="0.63946">
        <ele>103</ele>
        <time>2015-03-12T14:29:24Z</time>
      </trkpt>
      <trkpt lat="45.15095" lon="0.63941">
        <ele>105.69</ele>
        <time>2015-03-12T14:29:34Z</time>
      </trkpt>
      <trkpt lat="45.15111" lon="0.63934">
        <ele>109.39</ele>
        <time>2015-03-12T14:29:46Z</time>
      </trkpt>
      <trkpt lat="45.15126" lon="0.63929">
        <ele>111</ele>
        <time>2015-03-12T14:29:59Z</time>
      </trkpt>
      <trkpt lat="45.15142" lon="0.63927">
        <ele>110.5</ele>
        <time>2015-03-12T14:30:13Z</time>
      </trkpt>
      <trkpt lat="45.15155" lon="0.63928">
        <ele>111.5</ele>
        <time>2015-03-12T14:30:22Z</time>
      </trkpt>
      <trkpt lat="45.15169" lon="0.63928">
        <ele>112.8</ele>
        <time>2015-03-12T14:30:32Z</time>
      </trkpt>
      <trkpt lat="45.15188" lon="0.63928">
        <ele>116.19</ele>
        <time>2015-03-12T14:30:45Z</time>
      </trkpt>
      <trkpt lat="45.15201" lon="0.63928">
        <ele>117.39</ele>
        <time>2015-03-12T14:30:53Z</time>
      </trkpt>
      <trkpt lat="45.15219" lon="0.63927">
        <ele>121.1</ele>
        <time>2015-03-12T14:31:07Z</time>
      </trkpt>
      <trkpt lat="45.15243" lon="0.63929">
        <ele>118.5</ele>
        <time>2015-03-12T14:31:21Z</time>
      </trkpt>
      <trkpt lat="45.15255" lon="0.63931">
        <ele>118.89</ele>
        <time>2015-03-12T14:31:27Z</time>
      </trkpt>
      <trkpt lat="45.15265" lon="0.63932">
        <ele>117.19</ele>
        <time>2015-03-12T14:31:34Z</time>
      </trkpt>
      <trkpt lat="45.15287" lon="0.63912">
        <ele>116.5</ele>
        <time>2015-03-12T14:31:49Z</time>
      </trkpt>
      <trkpt lat="45.15299" lon="0.6388">
        <ele>116.6</ele>
        <time>2015-03-12T14:31:59Z</time>
      </trkpt>
      <trkpt lat="45.15312" lon="0.6385">
        <ele>115.89</ele>
        <time>2015-03-12T14:32:08Z</time>
      </trkpt>
      <trkpt lat="45.15325" lon="0.63818">
        <ele>116.1</ele>
        <time>2015-03-12T14:32:16Z</time>
      </trkpt>
      <trkpt lat="45.15331" lon="0.63804">
        <ele>115.6</ele>
        <time>2015-03-12T14:32:19Z</time>
      </trkpt>
      <trkpt lat="45.15348" lon="0.63768">
        <ele>113.3</ele>
        <time>2015-03-12T14:32:25Z</time>
      </trkpt>
      <trkpt lat="45.15363" lon="0.63732">
        <ele>113.5</ele>
        <time>2015-03-12T14:32:31Z</time>
      </trkpt>
      <trkpt lat="45.15383" lon="0.63722">
        <ele>114.39</ele>
        <time>2015-03-12T14:32:38Z</time>
      </trkpt>
      <trkpt lat="45.15392" lon="0.63732">
        <ele>116.3</ele>
        <time>2015-03-12T14:32:43Z</time>
      </trkpt>
      <trkpt lat="45.1541" lon="0.63751">
        <ele>122.3</ele>
        <time>2015-03-12T14:32:55Z</time>
      </trkpt>
      <trkpt lat="45.15428" lon="0.63769">
        <ele>125.1</ele>
        <time>2015-03-12T14:33:07Z</time>
      </trkpt>
      <trkpt lat="45.15438" lon="0.63781">
        <ele>128.8</ele>
        <time>2015-03-12T14:33:15Z</time>
      </trkpt>
      <trkpt lat="45.15458" lon="0.63798">
        <ele>131.5</ele>
        <time>2015-03-12T14:33:28Z</time>
      </trkpt>
      <trkpt lat="45.1547" lon="0.63808">
        <ele>132.19</ele>
        <time>2015-03-12T14:33:36Z</time>
      </trkpt>
      <trkpt lat="45.15477" lon="0.63814">
        <ele>132.6</ele>
        <time>2015-03-12T14:33:41Z</time>
      </trkpt>
      <trkpt lat="45.15488" lon="0.63823">
        <ele>134.5</ele>
        <time>2015-03-12T14:33:48Z</time>
      </trkpt>
      <trkpt lat="45.15506" lon="0.63839">
        <ele>140.19</ele>
        <time>2015-03-12T14:34:00Z</time>
      </trkpt>
      <trkpt lat="45.1552" lon="0.63853">
        <ele>142.39</ele>
        <time>2015-03-12T14:34:11Z</time>
      </trkpt>
      <trkpt lat="45.15533" lon="0.6387">
        <ele>144.6</ele>
        <time>2015-03-12T14:34:23Z</time>
      </trkpt>
      <trkpt lat="45.15546" lon="0.63887">
        <ele>144.5</ele>
        <time>2015-03-12T14:34:33Z</time>
      </trkpt>
      <trkpt lat="45.15565" lon="0.6391">
        <ele>147.19</ele>
        <time>2015-03-12T14:34:47Z</time>
      </trkpt>
      <trkpt lat="45.15584" lon="0.63932">
        <ele>149.19</ele>
        <time>2015-03-12T14:35:01Z</time>
      </trkpt>
      <trkpt lat="45.15594" lon="0.63943">
        <ele>151.5</ele>
        <time>2015-03-12T14:35:08Z</time>
      </trkpt>
      <trkpt lat="45.15609" lon="0.63956">
        <ele>152</ele>
        <time>2015-03-12T14:35:20Z</time>
      </trkpt>
      <trkpt lat="45.1563" lon="0.6397">
        <ele>151.19</ele>
        <time>2015-03-12T14:35:33Z</time>
      </trkpt>
      <trkpt lat="45.15649" lon="0.63981">
        <ele>155.1</ele>
        <time>2015-03-12T14:35:44Z</time>
      </trkpt>
      <trkpt lat="45.15668" lon="0.63987">
        <ele>152.69</ele>
        <time>2015-03-12T14:35:55Z</time>
      </trkpt>
      <trkpt lat="45.15686" lon="0.63993">
        <ele>154.19</ele>
        <time>2015-03-12T14:36:04Z</time>
      </trkpt>
      <trkpt lat="45.15698" lon="0.63995">
        <ele>152.69</ele>
        <time>2015-03-12T14:36:10Z</time>
      </trkpt>
      <trkpt lat="45.1572" lon="0.64001">
        <ele>153.5</ele>
        <time>2015-03-12T14:36:21Z</time>
      </trkpt>
      <trkpt lat="45.15741" lon="0.64006">
        <ele>156.6</ele>
        <time>2015-03-12T14:36:32Z</time>
      </trkpt>
      <trkpt lat="45.15759" lon="0.64012">
        <ele>157.1</ele>
        <time>2015-03-12T14:36:41Z</time>
      </trkpt>
      <trkpt lat="45.15776" lon="0.64016">
        <ele>159.1</ele>
        <time>2015-03-12T14:36:51Z</time>
      </trkpt>
      <trkpt lat="45.15796" lon="0.64021">
        <ele>156.19</ele>
        <time>2015-03-12T14:37:01Z</time>
      </trkpt>
      <trkpt lat="45.15814" lon="0.64028">
        <ele>156.19</ele>
        <time>2015-03-12T14:37:10Z</time>
      </trkpt>
      <trkpt lat="45.15821" lon="0.64029">
        <ele>156.6</ele>
        <time>2015-03-12T14:37:13Z</time>
      </trkpt>
      <trkpt lat="45.15844" lon="0.64035">
        <ele>157.39</ele>
        <time>2015-03-12T14:37:24Z</time>
      </trkpt>
      <trkpt lat="45.15864" lon="0.64039">
        <ele>158.6</ele>
        <time>2015-03-12T14:37:34Z</time>
      </trkpt>
      <trkpt lat="45.15886" lon="0.64044">
        <ele>157</ele>
        <time>2015-03-12T14:37:44Z</time>
      </trkpt>
      <trkpt lat="45.15897" lon="0.64048">
        <ele>159</ele>
        <time>2015-03-12T14:37:49Z</time>
      </trkpt>
      <trkpt lat="45.15909" lon="0.64048">
        <ele>161.69</ele>
        <time>2015-03-12T14:37:56Z</time>
      </trkpt>
      <trkpt lat="45.15918" lon="0.64048">
        <ele>163.19</ele>
        <time>2015-03-12T14:38:02Z</time>
      </trkpt>
      <trkpt lat="45.15935" lon="0.6405">
        <ele>163.89</ele>
        <time>2015-03-12T14:38:11Z</time>
      </trkpt>
      <trkpt lat="45.15948" lon="0.64048">
        <ele>162.5</ele>
        <time>2015-03-12T14:38:18Z</time>
      </trkpt>
      <trkpt lat="45.15965" lon="0.64065">
        <ele>163.19</ele>
        <time>2015-03-12T14:38:28Z</time>
      </trkpt>
      <trkpt lat="45.15974" lon="0.64091">
        <ele>163.69</ele>
        <time>2015-03-12T14:38:37Z</time>
      </trkpt>
      <trkpt lat="45.15977" lon="0.6411">
        <ele>165.19</ele>
        <time>2015-03-12T14:38:44Z</time>
      </trkpt>
      <trkpt lat="45.15987" lon="0.64135">
        <ele>167.1</ele>
        <time>2015-03-12T14:38:54Z</time>
      </trkpt>
      <trkpt lat="45.15997" lon="0.64163">
        <ele>170.39</ele>
        <time>2015-03-12T14:39:06Z</time>
      </trkpt>
      <trkpt lat="45.16001" lon="0.64181">
        <ele>168.69</ele>
        <time>2015-03-12T14:39:14Z</time>
      </trkpt>
      <trkpt lat="45.16008" lon="0.64207">
        <ele>170.6</ele>
        <time>2015-03-12T14:39:26Z</time>
      </trkpt>
      <trkpt lat="45.16015" lon="0.64235">
        <ele>173.89</ele>
        <time>2015-03-12T14:39:38Z</time>
      </trkpt>
      <trkpt lat="45.16021" lon="0.64266">
        <ele>175.8</ele>
        <time>2015-03-12T14:39:49Z</time>
      </trkpt>
      <trkpt lat="45.16024" lon="0.64283">
        <ele>177</ele>
        <time>2015-03-12T14:39:56Z</time>
      </trkpt>
      <trkpt lat="45.16026" lon="0.64306">
        <ele>178.69</ele>
        <time>2015-03-12T14:40:06Z</time>
      </trkpt>
      <trkpt lat="45.1603" lon="0.64331">
        <ele>179.39</ele>
        <time>2015-03-12T14:40:17Z</time>
      </trkpt>
      <trkpt lat="45.16037" lon="0.64364">
        <ele>181.39</ele>
        <time>2015-03-12T14:40:30Z</time>
      </trkpt>
      <trkpt lat="45.16048" lon="0.64386">
        <ele>185</ele>
        <time>2015-03-12T14:40:39Z</time>
      </trkpt>
      <trkpt lat="45.16062" lon="0.64413">
        <ele>185</ele>
        <time>2015-03-12T14:40:49Z</time>
      </trkpt>
      <trkpt lat="45.16074" lon="0.64434">
        <ele>186.89</ele>
        <time>2015-03-12T14:40:57Z</time>
      </trkpt>
      <trkpt lat="45.16087" lon="0.64453">
        <ele>186.69</ele>
        <time>2015-03-12T14:41:04Z</time>
      </trkpt>
      <trkpt lat="45.16104" lon="0.64481">
        <ele>185</ele>
        <time>2015-03-12T14:41:11Z</time>
      </trkpt>
      <trkpt lat="45.16125" lon="0.6451">
        <ele>182.19</ele>
        <time>2015-03-12T14:41:16Z</time>
      </trkpt>
      <trkpt lat="45.16147" lon="0.64551">
        <ele>180.39</ele>
        <time>2015-03-12T14:41:21Z</time>
      </trkpt>
      <trkpt lat="45.1619" lon="0.64619">
        <ele>179.5</ele>
        <time>2015-03-12T14:41:28Z</time>
      </trkpt>
      <trkpt lat="45.16215" lon="0.64679">
        <ele>177</ele>
        <time>2015-03-12T14:41:33Z</time>
      </trkpt>
      <trkpt lat="45.16235" lon="0.64754">
        <ele>172.1</ele>
        <time>2015-03-12T14:41:39Z</time>
      </trkpt>
      <trkpt lat="45.1626" lon="0.64825">
        <ele>170.39</ele>
        <time>2015-03-12T14:41:45Z</time>
      </trkpt>
      <trkpt lat="45.16274" lon="0.64866">
        <ele>168.89</ele>
        <time>2015-03-12T14:41:49Z</time>
      </trkpt>
      <trkpt lat="45.16277" lon="0.64929">
        <ele>172.6</ele>
        <time>2015-03-12T14:41:55Z</time>
      </trkpt>
      <trkpt lat="45.16278" lon="0.64981">
        <ele>177.1</ele>
        <time>2015-03-12T14:42:00Z</time>
      </trkpt>
      <trkpt lat="45.16275" lon="0.65028">
        <ele>176.89</ele>
        <time>2015-03-12T14:42:05Z</time>
      </trkpt>
      <trkpt lat="45.16269" lon="0.65081">
        <ele>177.39</ele>
        <time>2015-03-12T14:42:11Z</time>
      </trkpt>
      <trkpt lat="45.16265" lon="0.65115">
        <ele>174</ele>
        <time>2015-03-12T14:42:16Z</time>
      </trkpt>
      <trkpt lat="45.16255" lon="0.65151">
        <ele>175.6</ele>
        <time>2015-03-12T14:42:22Z</time>
      </trkpt>
      <trkpt lat="45.16259" lon="0.65193">
        <ele>173.8</ele>
        <time>2015-03-12T14:42:28Z</time>
      </trkpt>
      <trkpt lat="45.16255" lon="0.65224">
        <ele>178.3</ele>
        <time>2015-03-12T14:42:33Z</time>
      </trkpt>
      <trkpt lat="45.16256" lon="0.65258">
        <ele>180.1</ele>
        <time>2015-03-12T14:42:40Z</time>
      </trkpt>
      <trkpt lat="45.16264" lon="0.65286">
        <ele>181.1</ele>
        <time>2015-03-12T14:42:46Z</time>
      </trkpt>
      <trkpt lat="45.16278" lon="0.65319">
        <ele>182.3</ele>
        <time>2015-03-12T14:42:52Z</time>
      </trkpt>
      <trkpt lat="45.16289" lon="0.6535">
        <ele>183.8</ele>
        <time>2015-03-12T14:42:58Z</time>
      </trkpt>
      <trkpt lat="45.16307" lon="0.65385">
        <ele>179</ele>
        <time>2015-03-12T14:43:05Z</time>
      </trkpt>
      <trkpt lat="45.1632" lon="0.65419">
        <ele>177</ele>
        <time>2015-03-12T14:43:10Z</time>
      </trkpt>
      <trkpt lat="45.16327" lon="0.65442">
        <ele>176.69</ele>
        <time>2015-03-12T14:43:15Z</time>
      </trkpt>
      <trkpt lat="45.16338" lon="0.65473">
        <ele>173.19</ele>
        <time>2015-03-12T14:43:21Z</time>
      </trkpt>
      <trkpt lat="45.16351" lon="0.65509">
        <ele>170.39</ele>
        <time>2015-03-12T14:43:28Z</time>
      </trkpt>
      <trkpt lat="45.16355" lon="0.65537">
        <ele>171.5</ele>
        <time>2015-03-12T14:43:35Z</time>
      </trkpt>
      <trkpt lat="45.16362" lon="0.6557">
        <ele>166.6</ele>
        <time>2015-03-12T14:43:42Z</time>
      </trkpt>
      <trkpt lat="45.16373" lon="0.65607">
        <ele>162.19</ele>
        <time>2015-03-12T14:43:50Z</time>
      </trkpt>
      <trkpt lat="45.16387" lon="0.65669">
        <ele>164.3</ele>
        <time>2015-03-12T14:43:57Z</time>
      </trkpt>
      <trkpt lat="45.16392" lon="0.6573">
        <ele>166.89</ele>
        <time>2015-03-12T14:44:03Z</time>
      </trkpt>
      <trkpt lat="45.16394" lon="0.6581">
        <ele>161.69</ele>
        <time>2015-03-12T14:44:09Z</time>
      </trkpt>
      <trkpt lat="45.16396" lon="0.65899">
        <ele>165.89</ele>
        <time>2015-03-12T14:44:16Z</time>
      </trkpt>
      <trkpt lat="45.16401" lon="0.65945">
        <ele>168.39</ele>
        <time>2015-03-12T14:44:23Z</time>
      </trkpt>
      <trkpt lat="45.16403" lon="0.65974">
        <ele>166.39</ele>
        <time>2015-03-12T14:44:29Z</time>
      </trkpt>
      <trkpt lat="45.16404" lon="0.65999">
        <ele>166</ele>
        <time>2015-03-12T14:44:37Z</time>
      </trkpt>
      <trkpt lat="45.16404" lon="0.66027">
        <ele>167.3</ele>
        <time>2015-03-12T14:44:48Z</time>
      </trkpt>
      <trkpt lat="45.16404" lon="0.66055">
        <ele>169.69</ele>
        <time>2015-03-12T14:45:00Z</time>
      </trkpt>
      <trkpt lat="45.16403" lon="0.66074">
        <ele>167.39</ele>
        <time>2015-03-12T14:45:10Z</time>
      </trkpt>
      <trkpt lat="45.16399" lon="0.6611">
        <ele>173.89</ele>
        <time>2015-03-12T14:45:25Z</time>
      </trkpt>
      <trkpt lat="45.16399" lon="0.66141">
        <ele>177.89</ele>
        <time>2015-03-12T14:45:35Z</time>
      </trkpt>
      <trkpt lat="45.164" lon="0.66157">
        <ele>173.8</ele>
        <time>2015-03-12T14:45:42Z</time>
      </trkpt>
      <trkpt lat="45.16401" lon="0.66176">
        <ele>175.8</ele>
        <time>2015-03-12T14:45:50Z</time>
      </trkpt>
      <trkpt lat="45.16398" lon="0.66214">
        <ele>178.89</ele>
        <time>2015-03-12T14:46:03Z</time>
      </trkpt>
      <trkpt lat="45.16394" lon="0.66242">
        <ele>181.19</ele>
        <time>2015-03-12T14:46:12Z</time>
      </trkpt>
      <trkpt lat="45.1639" lon="0.66282">
        <ele>181.89</ele>
        <time>2015-03-12T14:46:25Z</time>
      </trkpt>
      <trkpt lat="45.16388" lon="0.66306">
        <ele>188.69</ele>
        <time>2015-03-12T14:46:33Z</time>
      </trkpt>
      <trkpt lat="45.16389" lon="0.66326">
        <ele>195</ele>
        <time>2015-03-12T14:46:40Z</time>
      </trkpt>
      <trkpt lat="45.16386" lon="0.6634">
        <ele>197.1</ele>
        <time>2015-03-12T14:46:46Z</time>
      </trkpt>
      <trkpt lat="45.1638" lon="0.66374">
        <ele>187</ele>
        <time>2015-03-12T14:46:58Z</time>
      </trkpt>
      <trkpt lat="45.16379" lon="0.66404">
        <ele>185.8</ele>
        <time>2015-03-12T14:47:08Z</time>
      </trkpt>
      <trkpt lat="45.16369" lon="0.66426">
        <ele>187.5</ele>
        <time>2015-03-12T14:47:15Z</time>
      </trkpt>
      <trkpt lat="45.16362" lon="0.66458">
        <ele>185.39</ele>
        <time>2015-03-12T14:47:24Z</time>
      </trkpt>
      <trkpt lat="45.16356" lon="0.66477">
        <ele>184.39</ele>
        <time>2015-03-12T14:47:29Z</time>
      </trkpt>
      <trkpt lat="45.16337" lon="0.66519">
        <ele>183.69</ele>
        <time>2015-03-12T14:47:37Z</time>
      </trkpt>
      <trkpt lat="45.1632" lon="0.66566">
        <ele>181.89</ele>
        <time>2015-03-12T14:47:44Z</time>
      </trkpt>
      <trkpt lat="45.16306" lon="0.66607">
        <ele>183.3</ele>
        <time>2015-03-12T14:47:51Z</time>
      </trkpt>
      <trkpt lat="45.16301" lon="0.66645">
        <ele>188.69</ele>
        <time>2015-03-12T14:47:59Z</time>
      </trkpt>
      <trkpt lat="45.16287" lon="0.66664">
        <ele>188.89</ele>
        <time>2015-03-12T14:48:05Z</time>
      </trkpt>
      <trkpt lat="45.16281" lon="0.66679">
        <ele>189.8</ele>
        <time>2015-03-12T14:48:11Z</time>
      </trkpt>
      <trkpt lat="45.16271" lon="0.66706">
        <ele>190.39</ele>
        <time>2015-03-12T14:48:22Z</time>
      </trkpt>
      <trkpt lat="45.16261" lon="0.66738">
        <ele>195</ele>
        <time>2015-03-12T14:48:33Z</time>
      </trkpt>
      <trkpt lat="45.16259" lon="0.66748">
        <ele>195.1</ele>
        <time>2015-03-12T14:48:36Z</time>
      </trkpt>
      <trkpt lat="45.16256" lon="0.66783">
        <ele>193.19</ele>
        <time>2015-03-12T14:48:45Z</time>
      </trkpt>
      <trkpt lat="45.16234" lon="0.66801">
        <ele>191.8</ele>
        <time>2015-03-12T14:48:54Z</time>
      </trkpt>
      <trkpt lat="45.16215" lon="0.66796">
        <ele>191.6</ele>
        <time>2015-03-12T14:49:00Z</time>
      </trkpt>
      <trkpt lat="45.16192" lon="0.66792">
        <ele>193.69</ele>
        <time>2015-03-12T14:49:07Z</time>
      </trkpt>
      <trkpt lat="45.16173" lon="0.66789">
        <ele>192.5</ele>
        <time>2015-03-12T14:49:13Z</time>
      </trkpt>
      <trkpt lat="45.16146" lon="0.66785">
        <ele>192.19</ele>
        <time>2015-03-12T14:49:21Z</time>
      </trkpt>
      <trkpt lat="45.1613" lon="0.66804">
        <ele>194.39</ele>
        <time>2015-03-12T14:49:27Z</time>
      </trkpt>
      <trkpt lat="45.16124" lon="0.66834">
        <ele>193.8</ele>
        <time>2015-03-12T14:49:33Z</time>
      </trkpt>
      <trkpt lat="45.1612" lon="0.66864">
        <ele>192.8</ele>
        <time>2015-03-12T14:49:39Z</time>
      </trkpt>
      <trkpt lat="45.1611" lon="0.66903">
        <ele>193.6</ele>
        <time>2015-03-12T14:49:46Z</time>
      </trkpt>
      <trkpt lat="45.16103" lon="0.66938">
        <ele>194.69</ele>
        <time>2015-03-12T14:49:51Z</time>
      </trkpt>
      <trkpt lat="45.16096" lon="0.66974">
        <ele>193.3</ele>
        <time>2015-03-12T14:49:56Z</time>
      </trkpt>
      <trkpt lat="45.16083" lon="0.67016">
        <ele>193.1</ele>
        <time>2015-03-12T14:50:03Z</time>
      </trkpt>
      <trkpt lat="45.16069" lon="0.67057">
        <ele>193.89</ele>
        <time>2015-03-12T14:50:09Z</time>
      </trkpt>
      <trkpt lat="45.16062" lon="0.67078">
        <ele>193.89</ele>
        <time>2015-03-12T14:50:12Z</time>
      </trkpt>
      <trkpt lat="45.16056" lon="0.67098">
        <ele>194.19</ele>
        <time>2015-03-12T14:50:15Z</time>
      </trkpt>
      <trkpt lat="45.16048" lon="0.67119">
        <ele>194.5</ele>
        <time>2015-03-12T14:50:18Z</time>
      </trkpt>
      <trkpt lat="45.16034" lon="0.67164">
        <ele>193.69</ele>
        <time>2015-03-12T14:50:24Z</time>
      </trkpt>
      <trkpt lat="45.16023" lon="0.67199">
        <ele>193.6</ele>
        <time>2015-03-12T14:50:29Z</time>
      </trkpt>
      <trkpt lat="45.16016" lon="0.67218">
        <ele>196</ele>
        <time>2015-03-12T14:50:32Z</time>
      </trkpt>
      <trkpt lat="45.16005" lon="0.67246">
        <ele>197.8</ele>
        <time>2015-03-12T14:50:37Z</time>
      </trkpt>
      <trkpt lat="45.15995" lon="0.67276">
        <ele>197.39</ele>
        <time>2015-03-12T14:50:43Z</time>
      </trkpt>
      <trkpt lat="45.15987" lon="0.67299">
        <ele>197.1</ele>
        <time>2015-03-12T14:50:48Z</time>
      </trkpt>
      <trkpt lat="45.15985" lon="0.67319">
        <ele>198.6</ele>
        <time>2015-03-12T14:50:53Z</time>
      </trkpt>
      <trkpt lat="45.15987" lon="0.67355">
        <ele>199.1</ele>
        <time>2015-03-12T14:51:01Z</time>
      </trkpt>
      <trkpt lat="45.15987" lon="0.67367">
        <ele>198.69</ele>
        <time>2015-03-12T14:51:04Z</time>
      </trkpt>
      <trkpt lat="45.15989" lon="0.67404">
        <ele>199.5</ele>
        <time>2015-03-12T14:51:12Z</time>
      </trkpt>
      <trkpt lat="45.15991" lon="0.67433">
        <ele>198.6</ele>
        <time>2015-03-12T14:51:19Z</time>
      </trkpt>
      <trkpt lat="45.15993" lon="0.67466">
        <ele>197.5</ele>
        <time>2015-03-12T14:51:26Z</time>
      </trkpt>
      <trkpt lat="45.16001" lon="0.67493">
        <ele>198</ele>
        <time>2015-03-12T14:51:32Z</time>
      </trkpt>
      <trkpt lat="45.16021" lon="0.67524">
        <ele>197.3</ele>
        <time>2015-03-12T14:51:39Z</time>
      </trkpt>
      <trkpt lat="45.16044" lon="0.67548">
        <ele>198.19</ele>
        <time>2015-03-12T14:51:45Z</time>
      </trkpt>
      <trkpt lat="45.16061" lon="0.67578">
        <ele>199.3</ele>
        <time>2015-03-12T14:51:50Z</time>
      </trkpt>
      <trkpt lat="45.16073" lon="0.67618">
        <ele>195.69</ele>
        <time>2015-03-12T14:51:56Z</time>
      </trkpt>
      <trkpt lat="45.16083" lon="0.67655">
        <ele>195.8</ele>
        <time>2015-03-12T14:52:01Z</time>
      </trkpt>
      <trkpt lat="45.16111" lon="0.67703">
        <ele>191.19</ele>
        <time>2015-03-12T14:52:08Z</time>
      </trkpt>
      <trkpt lat="45.16142" lon="0.67733">
        <ele>188.39</ele>
        <time>2015-03-12T14:52:14Z</time>
      </trkpt>
      <trkpt lat="45.16174" lon="0.67758">
        <ele>189.39</ele>
        <time>2015-03-12T14:52:20Z</time>
      </trkpt>
      <trkpt lat="45.16202" lon="0.67789">
        <ele>191.5</ele>
        <time>2015-03-12T14:52:27Z</time>
      </trkpt>
      <trkpt lat="45.16228" lon="0.67825">
        <ele>189.5</ele>
        <time>2015-03-12T14:52:34Z</time>
      </trkpt>
      <trkpt lat="45.16245" lon="0.67858">
        <ele>188.19</ele>
        <time>2015-03-12T14:52:40Z</time>
      </trkpt>
      <trkpt lat="45.16263" lon="0.67899">
        <ele>187</ele>
        <time>2015-03-12T14:52:47Z</time>
      </trkpt>
      <trkpt lat="45.16287" lon="0.67942">
        <ele>186.89</ele>
        <time>2015-03-12T14:52:52Z</time>
      </trkpt>
      <trkpt lat="45.16315" lon="0.68004">
        <ele>187.6</ele>
        <time>2015-03-12T14:52:59Z</time>
      </trkpt>
      <trkpt lat="45.1633" lon="0.68042">
        <ele>189.5</ele>
        <time>2015-03-12T14:53:04Z</time>
      </trkpt>
      <trkpt lat="45.16344" lon="0.68071">
        <ele>187</ele>
        <time>2015-03-12T14:53:09Z</time>
      </trkpt>
      <trkpt lat="45.16364" lon="0.68077">
        <ele>184.69</ele>
        <time>2015-03-12T14:53:15Z</time>
      </trkpt>
      <trkpt lat="45.1638" lon="0.68069">
        <ele>182.89</ele>
        <time>2015-03-12T14:53:18Z</time>
      </trkpt>
      <trkpt lat="45.16421" lon="0.68054">
        <ele>183.19</ele>
        <time>2015-03-12T14:53:24Z</time>
      </trkpt>
      <trkpt lat="45.16446" lon="0.68045">
        <ele>182.8</ele>
        <time>2015-03-12T14:53:27Z</time>
      </trkpt>
      <trkpt lat="45.16498" lon="0.68028">
        <ele>182.5</ele>
        <time>2015-03-12T14:53:33Z</time>
      </trkpt>
      <trkpt lat="45.16537" lon="0.68012">
        <ele>182.89</ele>
        <time>2015-03-12T14:53:38Z</time>
      </trkpt>
      <trkpt lat="45.16576" lon="0.67986">
        <ele>183.19</ele>
        <time>2015-03-12T14:53:44Z</time>
      </trkpt>
      <trkpt lat="45.16619" lon="0.67954">
        <ele>179.1</ele>
        <time>2015-03-12T14:53:51Z</time>
      </trkpt>
      <trkpt lat="45.1665" lon="0.67939">
        <ele>176.89</ele>
        <time>2015-03-12T14:53:56Z</time>
      </trkpt>
      <trkpt lat="45.16693" lon="0.67916">
        <ele>175.1</ele>
        <time>2015-03-12T14:54:02Z</time>
      </trkpt>
      <trkpt lat="45.16726" lon="0.67902">
        <ele>172.69</ele>
        <time>2015-03-12T14:54:07Z</time>
      </trkpt>
      <trkpt lat="45.16747" lon="0.67895">
        <ele>174</ele>
        <time>2015-03-12T14:54:12Z</time>
      </trkpt>
      <trkpt lat="45.16781" lon="0.67893">
        <ele>174.19</ele>
        <time>2015-03-12T14:54:20Z</time>
      </trkpt>
      <trkpt lat="45.168" lon="0.67894">
        <ele>175.5</ele>
        <time>2015-03-12T14:54:26Z</time>
      </trkpt>
      <trkpt lat="45.16827" lon="0.67896">
        <ele>176.69</ele>
        <time>2015-03-12T14:54:34Z</time>
      </trkpt>
      <trkpt lat="45.16852" lon="0.67896">
        <ele>178.5</ele>
        <time>2015-03-12T14:54:41Z</time>
      </trkpt>
      <trkpt lat="45.16877" lon="0.67889">
        <ele>171.69</ele>
        <time>2015-03-12T14:54:47Z</time>
      </trkpt>
      <trkpt lat="45.1689" lon="0.67865">
        <ele>171.5</ele>
        <time>2015-03-12T14:54:53Z</time>
      </trkpt>
      <trkpt lat="45.16904" lon="0.67832">
        <ele>172.39</ele>
        <time>2015-03-12T14:55:00Z</time>
      </trkpt>
      <trkpt lat="45.16911" lon="0.67802">
        <ele>172.89</ele>
        <time>2015-03-12T14:55:06Z</time>
      </trkpt>
      <trkpt lat="45.16921" lon="0.67768">
        <ele>169.3</ele>
        <time>2015-03-12T14:55:13Z</time>
      </trkpt>
      <trkpt lat="45.16927" lon="0.67731">
        <ele>171.89</ele>
        <time>2015-03-12T14:55:18Z</time>
      </trkpt>
      <trkpt lat="45.16932" lon="0.67683">
        <ele>174</ele>
        <time>2015-03-12T14:55:24Z</time>
      </trkpt>
      <trkpt lat="45.16935" lon="0.67657">
        <ele>173.1</ele>
        <time>2015-03-12T14:55:27Z</time>
      </trkpt>
      <trkpt lat="45.16947" lon="0.67599">
        <ele>170.89</ele>
        <time>2015-03-12T14:55:33Z</time>
      </trkpt>
      <trkpt lat="45.16981" lon="0.67584">
        <ele>170</ele>
        <time>2015-03-12T14:55:38Z</time>
      </trkpt>
      <trkpt lat="45.17019" lon="0.67544">
        <ele>167.3</ele>
        <time>2015-03-12T14:55:44Z</time>
      </trkpt>
      <trkpt lat="45.17041" lon="0.67527">
        <ele>166.69</ele>
        <time>2015-03-12T14:55:47Z</time>
      </trkpt>
      <trkpt lat="45.17086" lon="0.67513">
        <ele>167.39</ele>
        <time>2015-03-12T14:55:53Z</time>
      </trkpt>
      <trkpt lat="45.17108" lon="0.67504">
        <ele>167.5</ele>
        <time>2015-03-12T14:55:56Z</time>
      </trkpt>
      <trkpt lat="45.17149" lon="0.67482">
        <ele>169</ele>
        <time>2015-03-12T14:56:02Z</time>
      </trkpt>
      <trkpt lat="45.17169" lon="0.67465">
        <ele>168.89</ele>
        <time>2015-03-12T14:56:05Z</time>
      </trkpt>
      <trkpt lat="45.17215" lon="0.6741">
        <ele>162.3</ele>
        <time>2015-03-12T14:56:11Z</time>
      </trkpt>
      <trkpt lat="45.17234" lon="0.67376">
        <ele>159.6</ele>
        <time>2015-03-12T14:56:14Z</time>
      </trkpt>
      <trkpt lat="45.17281" lon="0.67313">
        <ele>155.19</ele>
        <time>2015-03-12T14:56:20Z</time>
      </trkpt>
      <trkpt lat="45.17332" lon="0.67275">
        <ele>149.19</ele>
        <time>2015-03-12T14:56:25Z</time>
      </trkpt>
      <trkpt lat="45.17398" lon="0.67257">
        <ele>138.6</ele>
        <time>2015-03-12T14:56:31Z</time>
      </trkpt>
      <trkpt lat="45.1749" lon="0.67276">
        <ele>130.6</ele>
        <time>2015-03-12T14:56:38Z</time>
      </trkpt>
      <trkpt lat="45.1758" lon="0.67306">
        <ele>128.69</ele>
        <time>2015-03-12T14:56:45Z</time>
      </trkpt>
      <trkpt lat="45.1764" lon="0.67327">
        <ele>126.1</ele>
        <time>2015-03-12T14:56:51Z</time>
      </trkpt>
      <trkpt lat="45.177" lon="0.67323">
        <ele>118.8</ele>
        <time>2015-03-12T14:56:57Z</time>
      </trkpt>
      <trkpt lat="45.17736" lon="0.6729">
        <ele>116.39</ele>
        <time>2015-03-12T14:57:02Z</time>
      </trkpt>
      <trkpt lat="45.17762" lon="0.67265">
        <ele>116.89</ele>
        <time>2015-03-12T14:57:07Z</time>
      </trkpt>
      <trkpt lat="45.17779" lon="0.67257">
        <ele>116.19</ele>
        <time>2015-03-12T14:57:11Z</time>
      </trkpt>
      <trkpt lat="45.17779" lon="0.67257">
        <ele>115</ele>
        <time>2015-03-12T14:57:16Z</time>
      </trkpt>
      <trkpt lat="45.17779" lon="0.67257">
        <ele>115</ele>
        <time>2015-03-12T14:57:32Z</time>
      </trkpt>
      <trkpt lat="45.178" lon="0.6724">
        <ele>114.39</ele>
        <time>2015-03-12T14:57:32Z</time>
      </trkpt>
      <trkpt lat="45.17815" lon="0.67203">
        <ele>111.8</ele>
        <time>2015-03-12T14:57:38Z</time>
      </trkpt>
      <trkpt lat="45.17831" lon="0.67173">
        <ele>105.5</ele>
        <time>2015-03-12T14:57:43Z</time>
      </trkpt>
      <trkpt lat="45.17862" lon="0.67144">
        <ele>105.8</ele>
        <time>2015-03-12T14:57:49Z</time>
      </trkpt>
      <trkpt lat="45.17885" lon="0.67108">
        <ele>102</ele>
        <time>2015-03-12T14:57:55Z</time>
      </trkpt>
      <trkpt lat="45.17901" lon="0.67072">
        <ele>97.6</ele>
        <time>2015-03-12T14:58:00Z</time>
      </trkpt>
      <trkpt lat="45.17921" lon="0.6704">
        <ele>94.3</ele>
        <time>2015-03-12T14:58:05Z</time>
      </trkpt>
      <trkpt lat="45.17965" lon="0.67012">
        <ele>96.3</ele>
        <time>2015-03-12T14:58:12Z</time>
      </trkpt>
      <trkpt lat="45.18001" lon="0.66992">
        <ele>94</ele>
        <time>2015-03-12T14:58:18Z</time>
      </trkpt>
      <trkpt lat="45.18023" lon="0.66977">
        <ele>95.3</ele>
        <time>2015-03-12T14:58:22Z</time>
      </trkpt>
      <trkpt lat="45.18045" lon="0.66946">
        <ele>94.69</ele>
        <time>2015-03-12T14:58:27Z</time>
      </trkpt>
      <trkpt lat="45.18062" lon="0.66914">
        <ele>90.3</ele>
        <time>2015-03-12T14:58:31Z</time>
      </trkpt>
      <trkpt lat="45.18079" lon="0.66869">
        <ele>89.69</ele>
        <time>2015-03-12T14:58:36Z</time>
      </trkpt>
      <trkpt lat="45.18101" lon="0.66812">
        <ele>88.89</ele>
        <time>2015-03-12T14:58:42Z</time>
      </trkpt>
      <trkpt lat="45.1813" lon="0.66767">
        <ele>88.6</ele>
        <time>2015-03-12T14:58:47Z</time>
      </trkpt>
      <trkpt lat="45.18156" lon="0.66744">
        <ele>90.69</ele>
        <time>2015-03-12T14:58:53Z</time>
      </trkpt>
      <trkpt lat="45.18177" lon="0.66736">
        <ele>92.89</ele>
        <time>2015-03-12T14:58:56Z</time>
      </trkpt>
      <trkpt lat="45.18207" lon="0.66717">
        <ele>94.19</ele>
        <time>2015-03-12T14:59:03Z</time>
      </trkpt>
      <trkpt lat="45.18235" lon="0.667">
        <ele>94.69</ele>
        <time>2015-03-12T14:59:08Z</time>
      </trkpt>
      <trkpt lat="45.18268" lon="0.6668">
        <ele>92</ele>
        <time>2015-03-12T14:59:14Z</time>
      </trkpt>
      <trkpt lat="45.18302" lon="0.66667">
        <ele>91.6</ele>
        <time>2015-03-12T14:59:20Z</time>
      </trkpt>
      <trkpt lat="45.18335" lon="0.66658">
        <ele>88.89</ele>
        <time>2015-03-12T14:59:26Z</time>
      </trkpt>
      <trkpt lat="45.1836" lon="0.66631">
        <ele>85.69</ele>
        <time>2015-03-12T14:59:32Z</time>
      </trkpt>
      <trkpt lat="45.18372" lon="0.66612">
        <ele>85</ele>
        <time>2015-03-12T14:59:35Z</time>
      </trkpt>
      <trkpt lat="45.18404" lon="0.66577">
        <ele>82.39</ele>
        <time>2015-03-12T14:59:41Z</time>
      </trkpt>
      <trkpt lat="45.18422" lon="0.66559">
        <ele>80.3</ele>
        <time>2015-03-12T14:59:44Z</time>
      </trkpt>
      <trkpt lat="45.18454" lon="0.66528">
        <ele>77.4</ele>
        <time>2015-03-12T14:59:49Z</time>
      </trkpt>
      <trkpt lat="45.18488" lon="0.66493">
        <ele>75</ele>
        <time>2015-03-12T14:59:54Z</time>
      </trkpt>
      <trkpt lat="45.18524" lon="0.66465">
        <ele>74.09</ele>
        <time>2015-03-12T14:59:59Z</time>
      </trkpt>
      <trkpt lat="45.18546" lon="0.66459">
        <ele>74.59</ele>
        <time>2015-03-12T15:00:02Z</time>
      </trkpt>
      <trkpt lat="45.18566" lon="0.66463">
        <ele>74.9</ele>
        <time>2015-03-12T15:00:05Z</time>
      </trkpt>
      <trkpt lat="45.18591" lon="0.66452">
        <ele>74.59</ele>
        <time>2015-03-12T15:00:10Z</time>
      </trkpt>
      <trkpt lat="45.18572" lon="0.66414">
        <ele>74.8</ele>
        <time>2015-03-12T15:00:16Z</time>
      </trkpt>
      <trkpt lat="45.18559" lon="0.66384">
        <ele>77.4</ele>
        <time>2015-03-12T15:00:21Z</time>
      </trkpt>
      <trkpt lat="45.18549" lon="0.66351">
        <ele>79.19</ele>
        <time>2015-03-12T15:00:27Z</time>
      </trkpt>
      <trkpt lat="45.18541" lon="0.66323">
        <ele>79</ele>
        <time>2015-03-12T15:00:33Z</time>
      </trkpt>
      <trkpt lat="45.1853" lon="0.66284">
        <ele>81.5</ele>
        <time>2015-03-12T15:00:41Z</time>
      </trkpt>
      <trkpt lat="45.18522" lon="0.66256">
        <ele>82.39</ele>
        <time>2015-03-12T15:00:46Z</time>
      </trkpt>
      <trkpt lat="45.1852" lon="0.66225">
        <ele>82.89</ele>
        <time>2015-03-12T15:00:51Z</time>
      </trkpt>
      <trkpt lat="45.18515" lon="0.66193">
        <ele>82.5</ele>
        <time>2015-03-12T15:00:56Z</time>
      </trkpt>
      <trkpt lat="45.18512" lon="0.66171">
        <ele>82.5</ele>
        <time>2015-03-12T15:00:59Z</time>
      </trkpt>
      <trkpt lat="45.18507" lon="0.66139">
        <ele>86</ele>
        <time>2015-03-12T15:01:05Z</time>
      </trkpt>
      <trkpt lat="45.1851" lon="0.66105">
        <ele>85.1</ele>
        <time>2015-03-12T15:01:12Z</time>
      </trkpt>
      <trkpt lat="45.18543" lon="0.66083">
        <ele>82.3</ele>
        <time>2015-03-12T15:01:18Z</time>
      </trkpt>
      <trkpt lat="45.18565" lon="0.66073">
        <ele>82.1</ele>
        <time>2015-03-12T15:01:23Z</time>
      </trkpt>
      <trkpt lat="45.18596" lon="0.66058">
        <ele>79.89</ele>
        <time>2015-03-12T15:01:29Z</time>
      </trkpt>
      <trkpt lat="45.18625" lon="0.66047">
        <ele>78.8</ele>
        <time>2015-03-12T15:01:34Z</time>
      </trkpt>
      <trkpt lat="45.18644" lon="0.6604">
        <ele>77.3</ele>
        <time>2015-03-12T15:01:37Z</time>
      </trkpt>
      <trkpt lat="45.18666" lon="0.66034">
        <ele>76.8</ele>
        <time>2015-03-12T15:01:40Z</time>
      </trkpt>
      <trkpt lat="45.18703" lon="0.66041">
        <ele>74.9</ele>
        <time>2015-03-12T15:01:45Z</time>
      </trkpt>
      <trkpt lat="45.18744" lon="0.66066">
        <ele>72.9</ele>
        <time>2015-03-12T15:01:51Z</time>
      </trkpt>
      <trkpt lat="45.1876" lon="0.66076">
        <ele>71.5</ele>
        <time>2015-03-12T15:01:54Z</time>
      </trkpt>
      <trkpt lat="45.1877" lon="0.66055">
        <ele>67.59</ele>
        <time>2015-03-12T15:01:58Z</time>
      </trkpt>
      <trkpt lat="45.18761" lon="0.66015">
        <ele>69.19</ele>
        <time>2015-03-12T15:02:03Z</time>
      </trkpt>
      <trkpt lat="45.18752" lon="0.65969">
        <ele>70.59</ele>
        <time>2015-03-12T15:02:09Z</time>
      </trkpt>
      <trkpt lat="45.18741" lon="0.65921">
        <ele>72.3</ele>
        <time>2015-03-12T15:02:15Z</time>
      </trkpt>
      <trkpt lat="45.18732" lon="0.65877">
        <ele>72.3</ele>
        <time>2015-03-12T15:02:21Z</time>
      </trkpt>
      <trkpt lat="45.18724" lon="0.65835">
        <ele>73</ele>
        <time>2015-03-12T15:02:27Z</time>
      </trkpt>
      <trkpt lat="45.18715" lon="0.65793">
        <ele>74</ele>
        <time>2015-03-12T15:02:33Z</time>
      </trkpt>
      <trkpt lat="45.1871" lon="0.65772">
        <ele>74.69</ele>
        <time>2015-03-12T15:02:36Z</time>
      </trkpt>
      <trkpt lat="45.18707" lon="0.65732">
        <ele>76.3</ele>
        <time>2015-03-12T15:02:42Z</time>
      </trkpt>
      <trkpt lat="45.187" lon="0.65692">
        <ele>74.3</ele>
        <time>2015-03-12T15:02:48Z</time>
      </trkpt>
      <trkpt lat="45.18692" lon="0.65645">
        <ele>73.8</ele>
        <time>2015-03-12T15:02:55Z</time>
      </trkpt>
      <trkpt lat="45.18686" lon="0.65612">
        <ele>73.8</ele>
        <time>2015-03-12T15:03:00Z</time>
      </trkpt>
      <trkpt lat="45.1868" lon="0.65572">
        <ele>73.09</ele>
        <time>2015-03-12T15:03:06Z</time>
      </trkpt>
      <trkpt lat="45.18676" lon="0.65534">
        <ele>73.5</ele>
        <time>2015-03-12T15:03:12Z</time>
      </trkpt>
      <trkpt lat="45.18667" lon="0.65486">
        <ele>74.3</ele>
        <time>2015-03-12T15:03:19Z</time>
      </trkpt>
      <trkpt lat="45.18662" lon="0.65459">
        <ele>73.69</ele>
        <time>2015-03-12T15:03:23Z</time>
      </trkpt>
      <trkpt lat="45.1865" lon="0.6543">
        <ele>75.4</ele>
        <time>2015-03-12T15:03:28Z</time>
      </trkpt>
      <trkpt lat="45.18641" lon="0.654">
        <ele>75</ele>
        <time>2015-03-12T15:03:33Z</time>
      </trkpt>
      <trkpt lat="45.18632" lon="0.65371">
        <ele>72.5</ele>
        <time>2015-03-12T15:03:38Z</time>
      </trkpt>
      <trkpt lat="45.18623" lon="0.65336">
        <ele>71</ele>
        <time>2015-03-12T15:03:44Z</time>
      </trkpt>
      <trkpt lat="45.18616" lon="0.65297">
        <ele>72.5</ele>
        <time>2015-03-12T15:03:50Z</time>
      </trkpt>
      <trkpt lat="45.18608" lon="0.65253">
        <ele>72.5</ele>
        <time>2015-03-12T15:03:57Z</time>
      </trkpt>
      <trkpt lat="45.18596" lon="0.65212">
        <ele>71.19</ele>
        <time>2015-03-12T15:04:04Z</time>
      </trkpt>
      <trkpt lat="45.18584" lon="0.65178">
        <ele>70.59</ele>
        <time>2015-03-12T15:04:10Z</time>
      </trkpt>
      <trkpt lat="45.18567" lon="0.65144">
        <ele>69.4</ele>
        <time>2015-03-12T15:04:16Z</time>
      </trkpt>
      <trkpt lat="45.18554" lon="0.6511">
        <ele>72.59</ele>
        <time>2015-03-12T15:04:22Z</time>
      </trkpt>
      <trkpt lat="45.18551" lon="0.65071">
        <ele>72.19</ele>
        <time>2015-03-12T15:04:28Z</time>
      </trkpt>
      <trkpt lat="45.18552" lon="0.65045">
        <ele>73</ele>
        <time>2015-03-12T15:04:32Z</time>
      </trkpt>
      <trkpt lat="45.18555" lon="0.65009">
        <ele>70.8</ele>
        <time>2015-03-12T15:04:38Z</time>
      </trkpt>
      <trkpt lat="45.18553" lon="0.64974">
        <ele>69.59</ele>
        <time>2015-03-12T15:04:43Z</time>
      </trkpt>
      <trkpt lat="45.18548" lon="0.64929">
        <ele>68.5</ele>
        <time>2015-03-12T15:04:50Z</time>
      </trkpt>
      <trkpt lat="45.18541" lon="0.64895">
        <ele>69.5</ele>
        <time>2015-03-12T15:04:55Z</time>
      </trkpt>
      <trkpt lat="45.18532" lon="0.64862">
        <ele>70.19</ele>
        <time>2015-03-12T15:05:00Z</time>
      </trkpt>
      <trkpt lat="45.18518" lon="0.64827">
        <ele>73.59</ele>
        <time>2015-03-12T15:05:06Z</time>
      </trkpt>
      <trkpt lat="45.18506" lon="0.64795">
        <ele>75.59</ele>
        <time>2015-03-12T15:05:12Z</time>
      </trkpt>
      <trkpt lat="45.18505" lon="0.64761">
        <ele>75.5</ele>
        <time>2015-03-12T15:05:17Z</time>
      </trkpt>
      <trkpt lat="45.18507" lon="0.64729">
        <ele>73.9</ele>
        <time>2015-03-12T15:05:22Z</time>
      </trkpt>
      <trkpt lat="45.18505" lon="0.64688">
        <ele>73.9</ele>
        <time>2015-03-12T15:05:28Z</time>
      </trkpt>
      <trkpt lat="45.18505" lon="0.64648">
        <ele>74.4</ele>
        <time>2015-03-12T15:05:34Z</time>
      </trkpt>
      <trkpt lat="45.1851" lon="0.64615">
        <ele>74.9</ele>
        <time>2015-03-12T15:05:39Z</time>
      </trkpt>
      <trkpt lat="45.18514" lon="0.64579">
        <ele>73.19</ele>
        <time>2015-03-12T15:05:45Z</time>
      </trkpt>
      <trkpt lat="45.18516" lon="0.64545">
        <ele>69.3</ele>
        <time>2015-03-12T15:05:51Z</time>
      </trkpt>
      <trkpt lat="45.18518" lon="0.64506">
        <ele>68.59</ele>
        <time>2015-03-12T15:05:58Z</time>
      </trkpt>
      <trkpt lat="45.1852" lon="0.64471">
        <ele>66.69</ele>
        <time>2015-03-12T15:06:04Z</time>
      </trkpt>
      <trkpt lat="45.18519" lon="0.64442">
        <ele>67.19</ele>
        <time>2015-03-12T15:06:09Z</time>
      </trkpt>
      <trkpt lat="45.18518" lon="0.64424">
        <ele>67.3</ele>
        <time>2015-03-12T15:06:12Z</time>
      </trkpt>
      <trkpt lat="45.18517" lon="0.64405">
        <ele>66.3</ele>
        <time>2015-03-12T15:06:15Z</time>
      </trkpt>
      <trkpt lat="45.18517" lon="0.64372">
        <ele>63.19</ele>
        <time>2015-03-12T15:06:20Z</time>
      </trkpt>
      <trkpt lat="45.18517" lon="0.64329">
        <ele>63.19</ele>
        <time>2015-03-12T15:06:27Z</time>
      </trkpt>
      <trkpt lat="45.18522" lon="0.64295">
        <ele>64</ele>
        <time>2015-03-12T15:06:33Z</time>
      </trkpt>
      <trkpt lat="45.18525" lon="0.64277">
        <ele>63.59</ele>
        <time>2015-03-12T15:06:36Z</time>
      </trkpt>
      <trkpt lat="45.18529" lon="0.64248">
        <ele>63.59</ele>
        <time>2015-03-12T15:06:41Z</time>
      </trkpt>
      <trkpt lat="45.18532" lon="0.6422">
        <ele>63.8</ele>
        <time>2015-03-12T15:06:46Z</time>
      </trkpt>
      <trkpt lat="45.18539" lon="0.64184">
        <ele>64.59</ele>
        <time>2015-03-12T15:06:52Z</time>
      </trkpt>
      <trkpt lat="45.18542" lon="0.64148">
        <ele>65.8</ele>
        <time>2015-03-12T15:06:58Z</time>
      </trkpt>
      <trkpt lat="45.18544" lon="0.64117">
        <ele>64.19</ele>
        <time>2015-03-12T15:07:03Z</time>
      </trkpt>
      <trkpt lat="45.18545" lon="0.64085">
        <ele>62.9</ele>
        <time>2015-03-12T15:07:08Z</time>
      </trkpt>
      <trkpt lat="45.18546" lon="0.64048">
        <ele>64.4</ele>
        <time>2015-03-12T15:07:14Z</time>
      </trkpt>
      <trkpt lat="45.18546" lon="0.64019">
        <ele>63.8</ele>
        <time>2015-03-12T15:07:19Z</time>
      </trkpt>
      <trkpt lat="45.18546" lon="0.63982">
        <ele>63.9</ele>
        <time>2015-03-12T15:07:25Z</time>
      </trkpt>
      <trkpt lat="45.18546" lon="0.63963">
        <ele>64.3</ele>
        <time>2015-03-12T15:07:28Z</time>
      </trkpt>
      <trkpt lat="45.18546" lon="0.63926">
        <ele>64.59</ele>
        <time>2015-03-12T15:07:33Z</time>
      </trkpt>
      <trkpt lat="45.18546" lon="0.63908">
        <ele>64.59</ele>
        <time>2015-03-12T15:07:37Z</time>
      </trkpt>
      <trkpt lat="45.18547" lon="0.63885">
        <ele>64.9</ele>
        <time>2015-03-12T15:07:41Z</time>
      </trkpt>
      <trkpt lat="45.18549" lon="0.63849">
        <ele>64.19</ele>
        <time>2015-03-12T15:07:48Z</time>
      </trkpt>
      <trkpt lat="45.18566" lon="0.63824">
        <ele>64.59</ele>
        <time>2015-03-12T15:07:55Z</time>
      </trkpt>
      <trkpt lat="45.18588" lon="0.63804">
        <ele>64.59</ele>
        <time>2015-03-12T15:08:00Z</time>
      </trkpt>
      <trkpt lat="45.18608" lon="0.63773">
        <ele>66.59</ele>
        <time>2015-03-12T15:08:06Z</time>
      </trkpt>
      <trkpt lat="45.18625" lon="0.63741">
        <ele>65.9</ele>
        <time>2015-03-12T15:08:12Z</time>
      </trkpt>
      <trkpt lat="45.18641" lon="0.63709">
        <ele>66</ele>
        <time>2015-03-12T15:08:18Z</time>
      </trkpt>
      <trkpt lat="45.18649" lon="0.63684">
        <ele>62.9</ele>
        <time>2015-03-12T15:08:23Z</time>
      </trkpt>
      <trkpt lat="45.18665" lon="0.63664">
        <ele>64.09</ele>
        <time>2015-03-12T15:08:28Z</time>
      </trkpt>
      <trkpt lat="45.18678" lon="0.6364">
        <ele>66.09</ele>
        <time>2015-03-12T15:08:34Z</time>
      </trkpt>
      <trkpt lat="45.1868" lon="0.63621">
        <ele>65.8</ele>
        <time>2015-03-12T15:08:40Z</time>
      </trkpt>
      <trkpt lat="45.18666" lon="0.63609">
        <ele>65.69</ele>
        <time>2015-03-12T15:08:45Z</time>
      </trkpt>
      <trkpt lat="45.18653" lon="0.63596">
        <ele>68.19</ele>
        <time>2015-03-12T15:08:50Z</time>
      </trkpt>
      <trkpt lat="45.18632" lon="0.63565">
        <ele>70.5</ele>
        <time>2015-03-12T15:08:58Z</time>
      </trkpt>
      <trkpt lat="45.18625" lon="0.63532">
        <ele>71.3</ele>
        <time>2015-03-12T15:09:05Z</time>
      </trkpt>
      <trkpt lat="45.18621" lon="0.63501">
        <ele>69.69</ele>
        <time>2015-03-12T15:09:11Z</time>
      </trkpt>
      <trkpt lat="45.18626" lon="0.63463">
        <ele>68.3</ele>
        <time>2015-03-12T15:09:18Z</time>
      </trkpt>
      <trkpt lat="45.18635" lon="0.63438">
        <ele>68</ele>
        <time>2015-03-12T15:09:24Z</time>
      </trkpt>
      <trkpt lat="45.18629" lon="0.63413">
        <ele>66.5</ele>
        <time>2015-03-12T15:09:30Z</time>
      </trkpt>
      <trkpt lat="45.18609" lon="0.63396">
        <ele>66.4</ele>
        <time>2015-03-12T15:09:37Z</time>
      </trkpt>
      <trkpt lat="45.18596" lon="0.63383">
        <ele>67.4</ele>
        <time>2015-03-12T15:09:43Z</time>
      </trkpt>
      <trkpt lat="45.18614" lon="0.63356">
        <ele>68.9</ele>
        <time>2015-03-12T15:09:53Z</time>
      </trkpt>
      <trkpt lat="45.1862" lon="0.63345">
        <ele>67.3</ele>
        <time>2015-03-12T15:09:59Z</time>
      </trkpt>
      <trkpt lat="45.18599" lon="0.63327">
        <ele>62.8</ele>
        <time>2015-03-12T15:10:09Z</time>
      </trkpt>
      <trkpt lat="45.18591" lon="0.63314">
        <ele>63.5</ele>
        <time>2015-03-12T15:10:22Z</time>
      </trkpt>
      <trkpt lat="45.18582" lon="0.63314">
        <ele>63.3</ele>
        <time>2015-03-12T15:10:25Z</time>
      </trkpt>
      <trkpt lat="45.18582" lon="0.63314">
        <ele>79</ele>
        <time>2015-03-12T15:10:33Z</time>
      </trkpt>
      <trkpt lat="45.18582" lon="0.63314">
        <ele>79</ele>
        <time>2015-03-12T15:10:38Z</time>
      </trkpt>
    </trkseg>
  </trk>
</gpx>